<?xml version="1.0" encoding="UTF-8" standalone="no" ?>
<gpx xmlns="http://www.topografix.com/GPX/1/1" xmlns:xsi="http://www.w3.org/2001/XMLSchema-instance" xsi:schemaLocation="http://www.topografix.com/GPX/1/1 http://www.topografix.com/GPX/1/1/gpx.xsd" version="1.1" creator="VisuGPX - https://www.visugpx.com">
  <metadata>
    <name>Clarensac Course à pied 18,75 km</name>
  </metadata>
  <trk>
    <name><![CDATA[Clarensac Course à pied 18,75 km - 15 oct.]]></name>
    <trkseg>
      <trkpt lat="43.82681" lon="4.21809">
        <ele>78.51</ele>
        <time>2025-10-15T07:02:18.000Z</time>
      </trkpt>
      <trkpt lat="43.82706" lon="4.21795">
        <ele>78.82</ele>
        <time>2025-10-15T07:02:18.009Z</time>
      </trkpt>
      <trkpt lat="43.82732" lon="4.21781">
        <ele>79.15</ele>
        <time>2025-10-15T07:02:18.027Z</time>
      </trkpt>
      <trkpt lat="43.82758" lon="4.21767">
        <ele>79.33</ele>
        <time>2025-10-15T07:02:18.054Z</time>
      </trkpt>
      <trkpt lat="43.82783" lon="4.21754">
        <ele>79.58</ele>
        <time>2025-10-15T07:02:18.091Z</time>
      </trkpt>
      <trkpt lat="43.82809" lon="4.2174">
        <ele>79.79</ele>
        <time>2025-10-15T07:02:18.137Z</time>
      </trkpt>
      <trkpt lat="43.82834" lon="4.21726">
        <ele>79.71</ele>
        <time>2025-10-15T07:02:18.192Z</time>
      </trkpt>
      <trkpt lat="43.8283" lon="4.2169">
        <ele>79.34</ele>
        <time>2025-10-15T07:02:18.256Z</time>
      </trkpt>
      <trkpt lat="43.82827" lon="4.21655">
        <ele>78.93</ele>
        <time>2025-10-15T07:02:18.328Z</time>
      </trkpt>
      <trkpt lat="43.82826" lon="4.21654">
        <ele>78.57</ele>
        <time>2025-10-15T07:02:18.401Z</time>
      </trkpt>
      <trkpt lat="43.8285" lon="4.21652">
        <ele>77.87</ele>
        <time>2025-10-15T07:02:18.481Z</time>
      </trkpt>
      <trkpt lat="43.82861" lon="4.21637">
        <ele>77.52</ele>
        <time>2025-10-15T07:02:18.567Z</time>
      </trkpt>
      <trkpt lat="43.82873" lon="4.21622">
        <ele>77.12</ele>
        <time>2025-10-15T07:02:18.658Z</time>
      </trkpt>
      <trkpt lat="43.82873" lon="4.21622">
        <ele>76.75</ele>
        <time>2025-10-15T07:02:18.749Z</time>
      </trkpt>
      <trkpt lat="43.82892" lon="4.21608">
        <ele>76.34</ele>
        <time>2025-10-15T07:02:18.847Z</time>
      </trkpt>
      <trkpt lat="43.8291" lon="4.21594">
        <ele>75.9</ele>
        <time>2025-10-15T07:02:18.952Z</time>
      </trkpt>
      <trkpt lat="43.82933" lon="4.21583">
        <ele>75.48</ele>
        <time>2025-10-15T07:02:19.065Z</time>
      </trkpt>
      <trkpt lat="43.82956" lon="4.21572">
        <ele>75.16</ele>
        <time>2025-10-15T07:02:19.186Z</time>
      </trkpt>
      <trkpt lat="43.82978" lon="4.21562">
        <ele>74.81</ele>
        <time>2025-10-15T07:02:19.315Z</time>
      </trkpt>
      <trkpt lat="43.82999" lon="4.21546">
        <ele>74.37</ele>
        <time>2025-10-15T07:02:19.452Z</time>
      </trkpt>
      <trkpt lat="43.83019" lon="4.2153">
        <ele>73.9</ele>
        <time>2025-10-15T07:02:19.597Z</time>
      </trkpt>
      <trkpt lat="43.83024" lon="4.21517">
        <ele>73.44</ele>
        <time>2025-10-15T07:02:19.745Z</time>
      </trkpt>
      <trkpt lat="43.83043" lon="4.21517">
        <ele>73.07</ele>
        <time>2025-10-15T07:02:19.900Z</time>
      </trkpt>
      <trkpt lat="43.83041" lon="4.21487">
        <ele>71.78</ele>
        <time>2025-10-15T07:02:20.062Z</time>
      </trkpt>
      <trkpt lat="43.83039" lon="4.21456">
        <ele>71.47</ele>
        <time>2025-10-15T07:02:20.231Z</time>
      </trkpt>
      <trkpt lat="43.83036" lon="4.21427">
        <ele>71.21</ele>
        <time>2025-10-15T07:02:20.408Z</time>
      </trkpt>
      <trkpt lat="43.83031" lon="4.21403">
        <ele>70.96</ele>
        <time>2025-10-15T07:02:20.591Z</time>
      </trkpt>
      <trkpt lat="43.83026" lon="4.21379">
        <ele>70.74</ele>
        <time>2025-10-15T07:02:20.779Z</time>
      </trkpt>
      <trkpt lat="43.83026" lon="4.21369">
        <ele>70.6</ele>
        <time>2025-10-15T07:02:20.970Z</time>
      </trkpt>
      <trkpt lat="43.83033" lon="4.21347">
        <ele>70.55</ele>
        <time>2025-10-15T07:02:21.167Z</time>
      </trkpt>
      <trkpt lat="43.83041" lon="4.21326">
        <ele>70.57</ele>
        <time>2025-10-15T07:02:21.370Z</time>
      </trkpt>
      <trkpt lat="43.83047" lon="4.21313">
        <ele>70.65</ele>
        <time>2025-10-15T07:02:21.576Z</time>
      </trkpt>
      <trkpt lat="43.83054" lon="4.21306">
        <ele>70.8</ele>
        <time>2025-10-15T07:02:21.785Z</time>
      </trkpt>
      <trkpt lat="43.83069" lon="4.21304">
        <ele>71.05</ele>
        <time>2025-10-15T07:02:21.999Z</time>
      </trkpt>
      <trkpt lat="43.83093" lon="4.21316">
        <ele>71.37</ele>
        <time>2025-10-15T07:02:22.222Z</time>
      </trkpt>
      <trkpt lat="43.83118" lon="4.21328">
        <ele>71.74</ele>
        <time>2025-10-15T07:02:22.453Z</time>
      </trkpt>
      <trkpt lat="43.83133" lon="4.21343">
        <ele>72.06</ele>
        <time>2025-10-15T07:02:22.691Z</time>
      </trkpt>
      <trkpt lat="43.83154" lon="4.21351">
        <ele>72.41</ele>
        <time>2025-10-15T07:02:22.936Z</time>
      </trkpt>
      <trkpt lat="43.83176" lon="4.2136">
        <ele>72.78</ele>
        <time>2025-10-15T07:02:23.189Z</time>
      </trkpt>
      <trkpt lat="43.83176" lon="4.2136">
        <ele>73.13</ele>
        <time>2025-10-15T07:02:23.442Z</time>
      </trkpt>
      <trkpt lat="43.83176" lon="4.2136">
        <ele>73.47</ele>
        <time>2025-10-15T07:02:23.695Z</time>
      </trkpt>
      <trkpt lat="43.83182" lon="4.21336">
        <ele>74.97</ele>
        <time>2025-10-15T07:02:23.954Z</time>
      </trkpt>
      <trkpt lat="43.83189" lon="4.21313">
        <ele>75.43</ele>
        <time>2025-10-15T07:02:24.219Z</time>
      </trkpt>
      <trkpt lat="43.83199" lon="4.21289">
        <ele>75.87</ele>
        <time>2025-10-15T07:02:24.490Z</time>
      </trkpt>
      <trkpt lat="43.8321" lon="4.21266">
        <ele>76.32</ele>
        <time>2025-10-15T07:02:24.768Z</time>
      </trkpt>
      <trkpt lat="43.83214" lon="4.21233">
        <ele>76.73</ele>
        <time>2025-10-15T07:02:25.054Z</time>
      </trkpt>
      <trkpt lat="43.83214" lon="4.21218">
        <ele>77.19</ele>
        <time>2025-10-15T07:02:25.344Z</time>
      </trkpt>
      <trkpt lat="43.83208" lon="4.21201">
        <ele>77.68</ele>
        <time>2025-10-15T07:02:25.638Z</time>
      </trkpt>
      <trkpt lat="43.83208" lon="4.21201">
        <ele>78.19</ele>
        <time>2025-10-15T07:02:25.932Z</time>
      </trkpt>
      <trkpt lat="43.83201" lon="4.21167">
        <ele>78.74</ele>
        <time>2025-10-15T07:02:26.235Z</time>
      </trkpt>
      <trkpt lat="43.83193" lon="4.21133">
        <ele>79.34</ele>
        <time>2025-10-15T07:02:26.546Z</time>
      </trkpt>
      <trkpt lat="43.83185" lon="4.211">
        <ele>80.1</ele>
        <time>2025-10-15T07:02:26.866Z</time>
      </trkpt>
      <trkpt lat="43.83178" lon="4.21066">
        <ele>80.95</ele>
        <time>2025-10-15T07:02:27.194Z</time>
      </trkpt>
      <trkpt lat="43.83206" lon="4.21051">
        <ele>84.25</ele>
        <time>2025-10-15T07:02:27.532Z</time>
      </trkpt>
      <trkpt lat="43.83234" lon="4.21036">
        <ele>85.25</ele>
        <time>2025-10-15T07:02:27.880Z</time>
      </trkpt>
      <trkpt lat="43.83262" lon="4.21021">
        <ele>86.3</ele>
        <time>2025-10-15T07:02:28.238Z</time>
      </trkpt>
      <trkpt lat="43.83264" lon="4.21015">
        <ele>87.3</ele>
        <time>2025-10-15T07:02:28.598Z</time>
      </trkpt>
      <trkpt lat="43.83257" lon="4.20982">
        <ele>88.33</ele>
        <time>2025-10-15T07:02:28.966Z</time>
      </trkpt>
      <trkpt lat="43.83257" lon="4.20974">
        <ele>89.36</ele>
        <time>2025-10-15T07:02:29.336Z</time>
      </trkpt>
      <trkpt lat="43.83277" lon="4.20954">
        <ele>90.45</ele>
        <time>2025-10-15T07:02:29.714Z</time>
      </trkpt>
      <trkpt lat="43.83296" lon="4.20935">
        <ele>91.64</ele>
        <time>2025-10-15T07:02:30.100Z</time>
      </trkpt>
      <trkpt lat="43.83315" lon="4.20916">
        <ele>92.84</ele>
        <time>2025-10-15T07:02:30.494Z</time>
      </trkpt>
      <trkpt lat="43.83332" lon="4.20902">
        <ele>94.09</ele>
        <time>2025-10-15T07:02:30.895Z</time>
      </trkpt>
      <trkpt lat="43.8335" lon="4.20888">
        <ele>95.35</ele>
        <time>2025-10-15T07:02:31.302Z</time>
      </trkpt>
      <trkpt lat="43.83365" lon="4.20879">
        <ele>96.54</ele>
        <time>2025-10-15T07:02:31.715Z</time>
      </trkpt>
      <trkpt lat="43.8338" lon="4.20871">
        <ele>97.71</ele>
        <time>2025-10-15T07:02:32.133Z</time>
      </trkpt>
      <trkpt lat="43.83386" lon="4.20871">
        <ele>98.78</ele>
        <time>2025-10-15T07:02:32.553Z</time>
      </trkpt>
      <trkpt lat="43.83401" lon="4.20884">
        <ele>99.79</ele>
        <time>2025-10-15T07:02:32.979Z</time>
      </trkpt>
      <trkpt lat="43.83414" lon="4.20886">
        <ele>100.8</ele>
        <time>2025-10-15T07:02:33.410Z</time>
      </trkpt>
      <trkpt lat="43.83425" lon="4.20884">
        <ele>101.8</ele>
        <time>2025-10-15T07:02:33.844Z</time>
      </trkpt>
      <trkpt lat="43.83427" lon="4.20884">
        <ele>102.75</ele>
        <time>2025-10-15T07:02:34.279Z</time>
      </trkpt>
      <trkpt lat="43.83443" lon="4.20868">
        <ele>104.78</ele>
        <time>2025-10-15T07:02:34.720Z</time>
      </trkpt>
      <trkpt lat="43.83457" lon="4.20883">
        <ele>106.5</ele>
        <time>2025-10-15T07:02:35.167Z</time>
      </trkpt>
      <trkpt lat="43.83469" lon="4.20901">
        <ele>108.16</ele>
        <time>2025-10-15T07:02:35.620Z</time>
      </trkpt>
      <trkpt lat="43.83482" lon="4.20911">
        <ele>109.8</ele>
        <time>2025-10-15T07:02:36.078Z</time>
      </trkpt>
      <trkpt lat="43.83511" lon="4.20893">
        <ele>111.73</ele>
        <time>2025-10-15T07:02:36.547Z</time>
      </trkpt>
      <trkpt lat="43.8352" lon="4.20905">
        <ele>113.17</ele>
        <time>2025-10-15T07:02:37.020Z</time>
      </trkpt>
      <trkpt lat="43.83527" lon="4.20876">
        <ele>114.86</ele>
        <time>2025-10-15T07:02:37.500Z</time>
      </trkpt>
      <trkpt lat="43.83534" lon="4.20846">
        <ele>115.96</ele>
        <time>2025-10-15T07:02:37.988Z</time>
      </trkpt>
      <trkpt lat="43.83535" lon="4.20844">
        <ele>116.67</ele>
        <time>2025-10-15T07:02:38.476Z</time>
      </trkpt>
      <trkpt lat="43.83556" lon="4.20854">
        <ele>117.19</ele>
        <time>2025-10-15T07:02:38.972Z</time>
      </trkpt>
      <trkpt lat="43.83575" lon="4.20849">
        <ele>117.85</ele>
        <time>2025-10-15T07:02:39.474Z</time>
      </trkpt>
      <trkpt lat="43.83588" lon="4.20851">
        <ele>118.36</ele>
        <time>2025-10-15T07:02:39.981Z</time>
      </trkpt>
      <trkpt lat="43.83605" lon="4.2086">
        <ele>118.72</ele>
        <time>2025-10-15T07:02:40.494Z</time>
      </trkpt>
      <trkpt lat="43.83607" lon="4.20871">
        <ele>119.06</ele>
        <time>2025-10-15T07:02:41.009Z</time>
      </trkpt>
      <trkpt lat="43.83614" lon="4.20875">
        <ele>119.47</ele>
        <time>2025-10-15T07:02:41.527Z</time>
      </trkpt>
      <trkpt lat="43.83633" lon="4.20873">
        <ele>119.93</ele>
        <time>2025-10-15T07:02:42.051Z</time>
      </trkpt>
      <trkpt lat="43.83644" lon="4.2086">
        <ele>120.57</ele>
        <time>2025-10-15T07:02:42.580Z</time>
      </trkpt>
      <trkpt lat="43.83659" lon="4.20853">
        <ele>121.14</ele>
        <time>2025-10-15T07:02:43.114Z</time>
      </trkpt>
      <trkpt lat="43.83674" lon="4.20845">
        <ele>121.82</ele>
        <time>2025-10-15T07:02:43.654Z</time>
      </trkpt>
      <trkpt lat="43.83702" lon="4.20847">
        <ele>122.22</ele>
        <time>2025-10-15T07:02:44.203Z</time>
      </trkpt>
      <trkpt lat="43.83717" lon="4.20835">
        <ele>123</ele>
        <time>2025-10-15T07:02:44.758Z</time>
      </trkpt>
      <trkpt lat="43.83732" lon="4.20824">
        <ele>123.6</ele>
        <time>2025-10-15T07:02:45.319Z</time>
      </trkpt>
      <trkpt lat="43.83735" lon="4.20818">
        <ele>124.39</ele>
        <time>2025-10-15T07:02:45.881Z</time>
      </trkpt>
      <trkpt lat="43.83751" lon="4.20798">
        <ele>126.07</ele>
        <time>2025-10-15T07:02:46.450Z</time>
      </trkpt>
      <trkpt lat="43.8377" lon="4.20774">
        <ele>127.01</ele>
        <time>2025-10-15T07:02:47.028Z</time>
      </trkpt>
      <trkpt lat="43.83785" lon="4.20746">
        <ele>128.09</ele>
        <time>2025-10-15T07:02:47.614Z</time>
      </trkpt>
      <trkpt lat="43.83809" lon="4.20718">
        <ele>129.35</ele>
        <time>2025-10-15T07:02:48.211Z</time>
      </trkpt>
      <trkpt lat="43.83824" lon="4.20693">
        <ele>130.6</ele>
        <time>2025-10-15T07:02:48.816Z</time>
      </trkpt>
      <trkpt lat="43.83836" lon="4.20665">
        <ele>131.69</ele>
        <time>2025-10-15T07:02:49.428Z</time>
      </trkpt>
      <trkpt lat="43.83848" lon="4.20638">
        <ele>132.73</ele>
        <time>2025-10-15T07:02:50.048Z</time>
      </trkpt>
      <trkpt lat="43.8386" lon="4.20611">
        <ele>133.55</ele>
        <time>2025-10-15T07:02:50.676Z</time>
      </trkpt>
      <trkpt lat="43.83875" lon="4.20591">
        <ele>134.23</ele>
        <time>2025-10-15T07:02:51.311Z</time>
      </trkpt>
      <trkpt lat="43.8389" lon="4.20572">
        <ele>134.9</ele>
        <time>2025-10-15T07:02:51.953Z</time>
      </trkpt>
      <trkpt lat="43.8389" lon="4.2057">
        <ele>136</ele>
        <time>2025-10-15T07:02:52.595Z</time>
      </trkpt>
      <trkpt lat="43.83895" lon="4.20568">
        <ele>136.44</ele>
        <time>2025-10-15T07:02:53.238Z</time>
      </trkpt>
      <trkpt lat="43.83903" lon="4.20585">
        <ele>136.81</ele>
        <time>2025-10-15T07:02:53.886Z</time>
      </trkpt>
      <trkpt lat="43.83895" lon="4.20613">
        <ele>137.04</ele>
        <time>2025-10-15T07:02:54.542Z</time>
      </trkpt>
      <trkpt lat="43.83886" lon="4.2064">
        <ele>137.28</ele>
        <time>2025-10-15T07:02:55.205Z</time>
      </trkpt>
      <trkpt lat="43.83878" lon="4.20667">
        <ele>137.49</ele>
        <time>2025-10-15T07:02:55.875Z</time>
      </trkpt>
      <trkpt lat="43.83871" lon="4.20699">
        <ele>137.56</ele>
        <time>2025-10-15T07:02:56.553Z</time>
      </trkpt>
      <trkpt lat="43.83865" lon="4.20731">
        <ele>137.98</ele>
        <time>2025-10-15T07:02:57.239Z</time>
      </trkpt>
      <trkpt lat="43.83854" lon="4.20751">
        <ele>138.09</ele>
        <time>2025-10-15T07:02:57.931Z</time>
      </trkpt>
      <trkpt lat="43.83843" lon="4.2077">
        <ele>138.24</ele>
        <time>2025-10-15T07:02:58.629Z</time>
      </trkpt>
      <trkpt lat="43.83842" lon="4.20796">
        <ele>138.74</ele>
        <time>2025-10-15T07:02:59.333Z</time>
      </trkpt>
      <trkpt lat="43.83841" lon="4.20821">
        <ele>139.12</ele>
        <time>2025-10-15T07:03:00.043Z</time>
      </trkpt>
      <trkpt lat="43.83842" lon="4.20863">
        <ele>139.59</ele>
        <time>2025-10-15T07:03:00.763Z</time>
      </trkpt>
      <trkpt lat="43.83844" lon="4.20905">
        <ele>140.15</ele>
        <time>2025-10-15T07:03:01.493Z</time>
      </trkpt>
      <trkpt lat="43.83845" lon="4.20946">
        <ele>140.8</ele>
        <time>2025-10-15T07:03:02.233Z</time>
      </trkpt>
      <trkpt lat="43.83838" lon="4.20981">
        <ele>141.16</ele>
        <time>2025-10-15T07:03:02.982Z</time>
      </trkpt>
      <trkpt lat="43.8383" lon="4.21017">
        <ele>141.59</ele>
        <time>2025-10-15T07:03:03.740Z</time>
      </trkpt>
      <trkpt lat="43.83833" lon="4.21058">
        <ele>142.42</ele>
        <time>2025-10-15T07:03:04.508Z</time>
      </trkpt>
      <trkpt lat="43.83836" lon="4.21098">
        <ele>143.21</ele>
        <time>2025-10-15T07:03:05.286Z</time>
      </trkpt>
      <trkpt lat="43.83839" lon="4.21139">
        <ele>144.12</ele>
        <time>2025-10-15T07:03:06.074Z</time>
      </trkpt>
      <trkpt lat="43.83835" lon="4.21178">
        <ele>144.92</ele>
        <time>2025-10-15T07:03:06.871Z</time>
      </trkpt>
      <trkpt lat="43.83825" lon="4.21217">
        <ele>145.46</ele>
        <time>2025-10-15T07:03:07.678Z</time>
      </trkpt>
      <trkpt lat="43.83815" lon="4.21257">
        <ele>146.01</ele>
        <time>2025-10-15T07:03:08.495Z</time>
      </trkpt>
      <trkpt lat="43.83811" lon="4.21294">
        <ele>146.78</ele>
        <time>2025-10-15T07:03:09.321Z</time>
      </trkpt>
      <trkpt lat="43.83807" lon="4.2133">
        <ele>147.55</ele>
        <time>2025-10-15T07:03:10.156Z</time>
      </trkpt>
      <trkpt lat="43.83809" lon="4.21354">
        <ele>148.44</ele>
        <time>2025-10-15T07:03:10.997Z</time>
      </trkpt>
      <trkpt lat="43.83811" lon="4.21375">
        <ele>149.37</ele>
        <time>2025-10-15T07:03:11.843Z</time>
      </trkpt>
      <trkpt lat="43.838" lon="4.21401">
        <ele>150.09</ele>
        <time>2025-10-15T07:03:12.696Z</time>
      </trkpt>
      <trkpt lat="43.838" lon="4.21419">
        <ele>151.06</ele>
        <time>2025-10-15T07:03:13.554Z</time>
      </trkpt>
      <trkpt lat="43.838" lon="4.21427">
        <ele>153.27</ele>
        <time>2025-10-15T07:03:14.414Z</time>
      </trkpt>
      <trkpt lat="43.83807" lon="4.21422">
        <ele>154.59</ele>
        <time>2025-10-15T07:03:15.276Z</time>
      </trkpt>
      <trkpt lat="43.8382" lon="4.21396">
        <ele>156.11</ele>
        <time>2025-10-15T07:03:16.146Z</time>
      </trkpt>
      <trkpt lat="43.83832" lon="4.21371">
        <ele>157.64</ele>
        <time>2025-10-15T07:03:17.023Z</time>
      </trkpt>
      <trkpt lat="43.83837" lon="4.21341">
        <ele>159.21</ele>
        <time>2025-10-15T07:03:17.907Z</time>
      </trkpt>
      <trkpt lat="43.83841" lon="4.21324">
        <ele>160.8</ele>
        <time>2025-10-15T07:03:18.796Z</time>
      </trkpt>
      <trkpt lat="43.83855" lon="4.21291">
        <ele>162.54</ele>
        <time>2025-10-15T07:03:19.694Z</time>
      </trkpt>
      <trkpt lat="43.83869" lon="4.21259">
        <ele>164.34</ele>
        <time>2025-10-15T07:03:20.601Z</time>
      </trkpt>
      <trkpt lat="43.83873" lon="4.21253">
        <ele>165.91</ele>
        <time>2025-10-15T07:03:21.510Z</time>
      </trkpt>
      <trkpt lat="43.83878" lon="4.21225">
        <ele>167.51</ele>
        <time>2025-10-15T07:03:22.426Z</time>
      </trkpt>
      <trkpt lat="43.83882" lon="4.21197">
        <ele>169.04</ele>
        <time>2025-10-15T07:03:23.349Z</time>
      </trkpt>
      <trkpt lat="43.83893" lon="4.21175">
        <ele>170.67</ele>
        <time>2025-10-15T07:03:24.278Z</time>
      </trkpt>
      <trkpt lat="43.83895" lon="4.21156">
        <ele>172.2</ele>
        <time>2025-10-15T07:03:25.212Z</time>
      </trkpt>
      <trkpt lat="43.83901" lon="4.21143">
        <ele>173.68</ele>
        <time>2025-10-15T07:03:26.150Z</time>
      </trkpt>
      <trkpt lat="43.83912" lon="4.21137">
        <ele>175.17</ele>
        <time>2025-10-15T07:03:27.092Z</time>
      </trkpt>
      <trkpt lat="43.83923" lon="4.21105">
        <ele>176.75</ele>
        <time>2025-10-15T07:03:28.042Z</time>
      </trkpt>
      <trkpt lat="43.83923" lon="4.21068">
        <ele>177.97</ele>
        <time>2025-10-15T07:03:29.001Z</time>
      </trkpt>
      <trkpt lat="43.83931" lon="4.21064">
        <ele>179.3</ele>
        <time>2025-10-15T07:03:29.963Z</time>
      </trkpt>
      <trkpt lat="43.8394" lon="4.21049">
        <ele>180.53</ele>
        <time>2025-10-15T07:03:30.930Z</time>
      </trkpt>
      <trkpt lat="43.83942" lon="4.2104">
        <ele>181.67</ele>
        <time>2025-10-15T07:03:31.899Z</time>
      </trkpt>
      <trkpt lat="43.83933" lon="4.21006">
        <ele>182.7</ele>
        <time>2025-10-15T07:03:32.876Z</time>
      </trkpt>
      <trkpt lat="43.83933" lon="4.20987">
        <ele>183.74</ele>
        <time>2025-10-15T07:03:33.858Z</time>
      </trkpt>
      <trkpt lat="43.8395" lon="4.20957">
        <ele>184.95</ele>
        <time>2025-10-15T07:03:34.849Z</time>
      </trkpt>
      <trkpt lat="43.83948" lon="4.20946">
        <ele>185.88</ele>
        <time>2025-10-15T07:03:35.843Z</time>
      </trkpt>
      <trkpt lat="43.83942" lon="4.20937">
        <ele>186.67</ele>
        <time>2025-10-15T07:03:36.840Z</time>
      </trkpt>
      <trkpt lat="43.83944" lon="4.20929">
        <ele>187.55</ele>
        <time>2025-10-15T07:03:37.839Z</time>
      </trkpt>
      <trkpt lat="43.83946" lon="4.2089">
        <ele>188.55</ele>
        <time>2025-10-15T07:03:38.848Z</time>
      </trkpt>
      <trkpt lat="43.83944" lon="4.20866">
        <ele>189.31</ele>
        <time>2025-10-15T07:03:39.862Z</time>
      </trkpt>
      <trkpt lat="43.83946" lon="4.20847">
        <ele>190.04</ele>
        <time>2025-10-15T07:03:40.881Z</time>
      </trkpt>
      <trkpt lat="43.83953" lon="4.20836">
        <ele>190.73</ele>
        <time>2025-10-15T07:03:41.903Z</time>
      </trkpt>
      <trkpt lat="43.83974" lon="4.20824">
        <ele>191.41</ele>
        <time>2025-10-15T07:03:42.933Z</time>
      </trkpt>
      <trkpt lat="43.83983" lon="4.20821">
        <ele>191.97</ele>
        <time>2025-10-15T07:03:43.966Z</time>
      </trkpt>
      <trkpt lat="43.83991" lon="4.20806">
        <ele>192.36</ele>
        <time>2025-10-15T07:03:45.004Z</time>
      </trkpt>
      <trkpt lat="43.83996" lon="4.20789">
        <ele>192.71</ele>
        <time>2025-10-15T07:03:46.046Z</time>
      </trkpt>
      <trkpt lat="43.84002" lon="4.20776">
        <ele>193.05</ele>
        <time>2025-10-15T07:03:47.092Z</time>
      </trkpt>
      <trkpt lat="43.84021" lon="4.20763">
        <ele>193.31</ele>
        <time>2025-10-15T07:03:48.145Z</time>
      </trkpt>
      <trkpt lat="43.84028" lon="4.20725">
        <ele>193.43</ele>
        <time>2025-10-15T07:03:49.208Z</time>
      </trkpt>
      <trkpt lat="43.84035" lon="4.20704">
        <ele>193.56</ele>
        <time>2025-10-15T07:03:50.276Z</time>
      </trkpt>
      <trkpt lat="43.84043" lon="4.20684">
        <ele>193.69</ele>
        <time>2025-10-15T07:03:51.350Z</time>
      </trkpt>
      <trkpt lat="43.84053" lon="4.20676">
        <ele>193.75</ele>
        <time>2025-10-15T07:03:52.428Z</time>
      </trkpt>
      <trkpt lat="43.8407" lon="4.20673">
        <ele>193.87</ele>
        <time>2025-10-15T07:03:53.511Z</time>
      </trkpt>
      <trkpt lat="43.84086" lon="4.20671">
        <ele>193.98</ele>
        <time>2025-10-15T07:03:54.600Z</time>
      </trkpt>
      <trkpt lat="43.84086" lon="4.20671">
        <ele>194</ele>
        <time>2025-10-15T07:03:55.689Z</time>
      </trkpt>
      <trkpt lat="43.84102" lon="4.20637">
        <ele>194.02</ele>
        <time>2025-10-15T07:03:56.787Z</time>
      </trkpt>
      <trkpt lat="43.84118" lon="4.20603">
        <ele>193.94</ele>
        <time>2025-10-15T07:03:57.895Z</time>
      </trkpt>
      <trkpt lat="43.84138" lon="4.20591">
        <ele>193.96</ele>
        <time>2025-10-15T07:03:59.011Z</time>
      </trkpt>
      <trkpt lat="43.84159" lon="4.20579">
        <ele>194.03</ele>
        <time>2025-10-15T07:04:00.134Z</time>
      </trkpt>
      <trkpt lat="43.84176" lon="4.20572">
        <ele>193.92</ele>
        <time>2025-10-15T07:04:01.263Z</time>
      </trkpt>
      <trkpt lat="43.8418" lon="4.2057">
        <ele>193.44</ele>
        <time>2025-10-15T07:04:02.393Z</time>
      </trkpt>
      <trkpt lat="43.84182" lon="4.2054">
        <ele>193.05</ele>
        <time>2025-10-15T07:04:03.531Z</time>
      </trkpt>
      <trkpt lat="43.84184" lon="4.2051">
        <ele>192.6</ele>
        <time>2025-10-15T07:04:04.676Z</time>
      </trkpt>
      <trkpt lat="43.84178" lon="4.20473">
        <ele>192.12</ele>
        <time>2025-10-15T07:04:05.830Z</time>
      </trkpt>
      <trkpt lat="43.84171" lon="4.20435">
        <ele>191.71</ele>
        <time>2025-10-15T07:04:06.994Z</time>
      </trkpt>
      <trkpt lat="43.84161" lon="4.20414">
        <ele>191.22</ele>
        <time>2025-10-15T07:04:08.164Z</time>
      </trkpt>
      <trkpt lat="43.84159" lon="4.20412">
        <ele>190.72</ele>
        <time>2025-10-15T07:04:09.335Z</time>
      </trkpt>
      <trkpt lat="43.84146" lon="4.20379">
        <ele>190.11</ele>
        <time>2025-10-15T07:04:10.515Z</time>
      </trkpt>
      <trkpt lat="43.84148" lon="4.20352">
        <ele>189.52</ele>
        <time>2025-10-15T07:04:11.701Z</time>
      </trkpt>
      <trkpt lat="43.84148" lon="4.20336">
        <ele>188.9</ele>
        <time>2025-10-15T07:04:12.891Z</time>
      </trkpt>
      <trkpt lat="43.84155" lon="4.20309">
        <ele>188.29</ele>
        <time>2025-10-15T07:04:14.088Z</time>
      </trkpt>
      <trkpt lat="43.84163" lon="4.20281">
        <ele>187.67</ele>
        <time>2025-10-15T07:04:15.292Z</time>
      </trkpt>
      <trkpt lat="43.84162" lon="4.20254">
        <ele>187.05</ele>
        <time>2025-10-15T07:04:16.503Z</time>
      </trkpt>
      <trkpt lat="43.84161" lon="4.20227">
        <ele>186.42</ele>
        <time>2025-10-15T07:04:17.720Z</time>
      </trkpt>
      <trkpt lat="43.84156" lon="4.20193">
        <ele>185.86</ele>
        <time>2025-10-15T07:04:18.946Z</time>
      </trkpt>
      <trkpt lat="43.84158" lon="4.20187">
        <ele>185.33</ele>
        <time>2025-10-15T07:04:20.173Z</time>
      </trkpt>
      <trkpt lat="43.84165" lon="4.20167">
        <ele>184.34</ele>
        <time>2025-10-15T07:04:21.406Z</time>
      </trkpt>
      <trkpt lat="43.84185" lon="4.20157">
        <ele>183.88</ele>
        <time>2025-10-15T07:04:22.646Z</time>
      </trkpt>
      <trkpt lat="43.84206" lon="4.20148">
        <ele>183.43</ele>
        <time>2025-10-15T07:04:23.893Z</time>
      </trkpt>
      <trkpt lat="43.84232" lon="4.20139">
        <ele>182.99</ele>
        <time>2025-10-15T07:04:25.149Z</time>
      </trkpt>
      <trkpt lat="43.84257" lon="4.2015">
        <ele>182.56</ele>
        <time>2025-10-15T07:04:26.414Z</time>
      </trkpt>
      <trkpt lat="43.84268" lon="4.20165">
        <ele>182.17</ele>
        <time>2025-10-15T07:04:27.684Z</time>
      </trkpt>
      <trkpt lat="43.84286" lon="4.20159">
        <ele>181.74</ele>
        <time>2025-10-15T07:04:28.960Z</time>
      </trkpt>
      <trkpt lat="43.84305" lon="4.20154">
        <ele>181.35</ele>
        <time>2025-10-15T07:04:30.242Z</time>
      </trkpt>
      <trkpt lat="43.84313" lon="4.20158">
        <ele>180.99</ele>
        <time>2025-10-15T07:04:31.527Z</time>
      </trkpt>
      <trkpt lat="43.84322" lon="4.20169">
        <ele>180.68</ele>
        <time>2025-10-15T07:04:32.816Z</time>
      </trkpt>
      <trkpt lat="43.84335" lon="4.20169">
        <ele>180.34</ele>
        <time>2025-10-15T07:04:34.110Z</time>
      </trkpt>
      <trkpt lat="43.84343" lon="4.20163">
        <ele>179.97</ele>
        <time>2025-10-15T07:04:35.407Z</time>
      </trkpt>
      <trkpt lat="43.84352" lon="4.20148">
        <ele>179.56</ele>
        <time>2025-10-15T07:04:36.708Z</time>
      </trkpt>
      <trkpt lat="43.84373" lon="4.20139">
        <ele>179.2</ele>
        <time>2025-10-15T07:04:38.017Z</time>
      </trkpt>
      <trkpt lat="43.84375" lon="4.20133">
        <ele>178.87</ele>
        <time>2025-10-15T07:04:39.328Z</time>
      </trkpt>
      <trkpt lat="43.84382" lon="4.20128">
        <ele>178.55</ele>
        <time>2025-10-15T07:04:40.641Z</time>
      </trkpt>
      <trkpt lat="43.84384" lon="4.20118">
        <ele>178.23</ele>
        <time>2025-10-15T07:04:41.957Z</time>
      </trkpt>
      <trkpt lat="43.84399" lon="4.20109">
        <ele>177.92</ele>
        <time>2025-10-15T07:04:43.278Z</time>
      </trkpt>
      <trkpt lat="43.84401" lon="4.20098">
        <ele>177.62</ele>
        <time>2025-10-15T07:04:44.602Z</time>
      </trkpt>
      <trkpt lat="43.84401" lon="4.20081">
        <ele>177.32</ele>
        <time>2025-10-15T07:04:45.930Z</time>
      </trkpt>
      <trkpt lat="43.84395" lon="4.20079">
        <ele>177.07</ele>
        <time>2025-10-15T07:04:47.260Z</time>
      </trkpt>
      <trkpt lat="43.8439" lon="4.20073">
        <ele>176.82</ele>
        <time>2025-10-15T07:04:48.592Z</time>
      </trkpt>
      <trkpt lat="43.8439" lon="4.20071">
        <ele>176.6</ele>
        <time>2025-10-15T07:04:49.924Z</time>
      </trkpt>
      <trkpt lat="43.8439" lon="4.20034">
        <ele>176.01</ele>
        <time>2025-10-15T07:04:51.265Z</time>
      </trkpt>
      <trkpt lat="43.84395" lon="4.20025">
        <ele>175.88</ele>
        <time>2025-10-15T07:04:52.609Z</time>
      </trkpt>
      <trkpt lat="43.84412" lon="4.20015">
        <ele>175.78</ele>
        <time>2025-10-15T07:04:53.959Z</time>
      </trkpt>
      <trkpt lat="43.84435" lon="4.20021">
        <ele>175.67</ele>
        <time>2025-10-15T07:04:55.317Z</time>
      </trkpt>
      <trkpt lat="43.8446" lon="4.20037">
        <ele>175.57</ele>
        <time>2025-10-15T07:04:56.684Z</time>
      </trkpt>
      <trkpt lat="43.84485" lon="4.20053">
        <ele>175.53</ele>
        <time>2025-10-15T07:04:58.060Z</time>
      </trkpt>
      <trkpt lat="43.84487" lon="4.20052">
        <ele>175.53</ele>
        <time>2025-10-15T07:04:59.437Z</time>
      </trkpt>
      <trkpt lat="43.84491" lon="4.20049">
        <ele>175.63</ele>
        <time>2025-10-15T07:05:00.816Z</time>
      </trkpt>
      <trkpt lat="43.84491" lon="4.2004">
        <ele>175.74</ele>
        <time>2025-10-15T07:05:02.197Z</time>
      </trkpt>
      <trkpt lat="43.84498" lon="4.20025">
        <ele>175.88</ele>
        <time>2025-10-15T07:05:03.582Z</time>
      </trkpt>
      <trkpt lat="43.84493" lon="4.20006">
        <ele>176.09</ele>
        <time>2025-10-15T07:05:04.972Z</time>
      </trkpt>
      <trkpt lat="43.84502" lon="4.19997">
        <ele>176.33</ele>
        <time>2025-10-15T07:05:06.366Z</time>
      </trkpt>
      <trkpt lat="43.84513" lon="4.20004">
        <ele>176.54</ele>
        <time>2025-10-15T07:05:07.763Z</time>
      </trkpt>
      <trkpt lat="43.84523" lon="4.20004">
        <ele>176.78</ele>
        <time>2025-10-15T07:05:09.164Z</time>
      </trkpt>
      <trkpt lat="43.84534" lon="4.19989">
        <ele>177.11</ele>
        <time>2025-10-15T07:05:10.570Z</time>
      </trkpt>
      <trkpt lat="43.84532" lon="4.19982">
        <ele>177.41</ele>
        <time>2025-10-15T07:05:11.978Z</time>
      </trkpt>
      <trkpt lat="43.84515" lon="4.19976">
        <ele>177.73</ele>
        <time>2025-10-15T07:05:13.392Z</time>
      </trkpt>
      <trkpt lat="43.84517" lon="4.19963">
        <ele>178.08</ele>
        <time>2025-10-15T07:05:14.809Z</time>
      </trkpt>
      <trkpt lat="43.84523" lon="4.19946">
        <ele>178.45</ele>
        <time>2025-10-15T07:05:16.231Z</time>
      </trkpt>
      <trkpt lat="43.8453" lon="4.19942">
        <ele>178.79</ele>
        <time>2025-10-15T07:05:17.655Z</time>
      </trkpt>
      <trkpt lat="43.84532" lon="4.19933">
        <ele>179.15</ele>
        <time>2025-10-15T07:05:19.081Z</time>
      </trkpt>
      <trkpt lat="43.84523" lon="4.19918">
        <ele>179.56</ele>
        <time>2025-10-15T07:05:20.512Z</time>
      </trkpt>
      <trkpt lat="43.84515" lon="4.19922">
        <ele>179.94</ele>
        <time>2025-10-15T07:05:21.946Z</time>
      </trkpt>
      <trkpt lat="43.84511" lon="4.19918">
        <ele>180.34</ele>
        <time>2025-10-15T07:05:23.382Z</time>
      </trkpt>
      <trkpt lat="43.84508" lon="4.19897">
        <ele>180.74</ele>
        <time>2025-10-15T07:05:24.823Z</time>
      </trkpt>
      <trkpt lat="43.84495" lon="4.19897">
        <ele>181.14</ele>
        <time>2025-10-15T07:05:26.268Z</time>
      </trkpt>
      <trkpt lat="43.84491" lon="4.1989">
        <ele>181.51</ele>
        <time>2025-10-15T07:05:27.715Z</time>
      </trkpt>
      <trkpt lat="43.84491" lon="4.19879">
        <ele>181.88</ele>
        <time>2025-10-15T07:05:29.165Z</time>
      </trkpt>
      <trkpt lat="43.84491" lon="4.19879">
        <ele>182.24</ele>
        <time>2025-10-15T07:05:30.615Z</time>
      </trkpt>
      <trkpt lat="43.8448" lon="4.19864">
        <ele>183.3</ele>
        <time>2025-10-15T07:05:32.070Z</time>
      </trkpt>
      <trkpt lat="43.84468" lon="4.19862">
        <ele>183.65</ele>
        <time>2025-10-15T07:05:33.529Z</time>
      </trkpt>
      <trkpt lat="43.84448" lon="4.19854">
        <ele>184</ele>
        <time>2025-10-15T07:05:34.995Z</time>
      </trkpt>
      <trkpt lat="43.84431" lon="4.19856">
        <ele>184.31</ele>
        <time>2025-10-15T07:05:36.467Z</time>
      </trkpt>
      <trkpt lat="43.84423" lon="4.19847">
        <ele>184.59</ele>
        <time>2025-10-15T07:05:37.942Z</time>
      </trkpt>
      <trkpt lat="43.8442" lon="4.19841">
        <ele>184.83</ele>
        <time>2025-10-15T07:05:39.419Z</time>
      </trkpt>
      <trkpt lat="43.8441" lon="4.19817">
        <ele>185.42</ele>
        <time>2025-10-15T07:05:40.903Z</time>
      </trkpt>
      <trkpt lat="43.84418" lon="4.19798">
        <ele>185.58</ele>
        <time>2025-10-15T07:05:42.392Z</time>
      </trkpt>
      <trkpt lat="43.84416" lon="4.19785">
        <ele>185.73</ele>
        <time>2025-10-15T07:05:43.884Z</time>
      </trkpt>
      <trkpt lat="43.8442" lon="4.19779">
        <ele>185.82</ele>
        <time>2025-10-15T07:05:45.378Z</time>
      </trkpt>
      <trkpt lat="43.84433" lon="4.19766">
        <ele>185.9</ele>
        <time>2025-10-15T07:05:46.878Z</time>
      </trkpt>
      <trkpt lat="43.84444" lon="4.19766">
        <ele>185.96</ele>
        <time>2025-10-15T07:05:48.381Z</time>
      </trkpt>
      <trkpt lat="43.8445" lon="4.19759">
        <ele>186</ele>
        <time>2025-10-15T07:05:49.887Z</time>
      </trkpt>
      <trkpt lat="43.84455" lon="4.19755">
        <ele>186.03</ele>
        <time>2025-10-15T07:05:51.395Z</time>
      </trkpt>
      <trkpt lat="43.84455" lon="4.19751">
        <ele>186.03</ele>
        <time>2025-10-15T07:05:52.904Z</time>
      </trkpt>
      <trkpt lat="43.84459" lon="4.19749">
        <ele>186.02</ele>
        <time>2025-10-15T07:05:54.414Z</time>
      </trkpt>
      <trkpt lat="43.84461" lon="4.19749">
        <ele>186.02</ele>
        <time>2025-10-15T07:05:55.925Z</time>
      </trkpt>
      <trkpt lat="43.84465" lon="4.19764">
        <ele>186.04</ele>
        <time>2025-10-15T07:05:57.440Z</time>
      </trkpt>
      <trkpt lat="43.84478" lon="4.19772">
        <ele>186.01</ele>
        <time>2025-10-15T07:05:58.960Z</time>
      </trkpt>
      <trkpt lat="43.84489" lon="4.19766">
        <ele>186</ele>
        <time>2025-10-15T07:06:00.484Z</time>
      </trkpt>
      <trkpt lat="43.84491" lon="4.19753">
        <ele>186.01</ele>
        <time>2025-10-15T07:06:02.011Z</time>
      </trkpt>
      <trkpt lat="43.84485" lon="4.19725">
        <ele>186.05</ele>
        <time>2025-10-15T07:06:03.545Z</time>
      </trkpt>
      <trkpt lat="43.84478" lon="4.19719">
        <ele>186.09</ele>
        <time>2025-10-15T07:06:05.082Z</time>
      </trkpt>
      <trkpt lat="43.84468" lon="4.19714">
        <ele>186.15</ele>
        <time>2025-10-15T07:06:06.622Z</time>
      </trkpt>
      <trkpt lat="43.84467" lon="4.19713">
        <ele>186.19</ele>
        <time>2025-10-15T07:06:08.162Z</time>
      </trkpt>
      <trkpt lat="43.84465" lon="4.19708">
        <ele>186.29</ele>
        <time>2025-10-15T07:06:09.704Z</time>
      </trkpt>
      <trkpt lat="43.84478" lon="4.19686">
        <ele>186.35</ele>
        <time>2025-10-15T07:06:11.253Z</time>
      </trkpt>
      <trkpt lat="43.84478" lon="4.19686">
        <ele>186.38</ele>
        <time>2025-10-15T07:06:12.802Z</time>
      </trkpt>
      <trkpt lat="43.84495" lon="4.19688">
        <ele>186.42</ele>
        <time>2025-10-15T07:06:14.356Z</time>
      </trkpt>
      <trkpt lat="43.84498" lon="4.19684">
        <ele>186.45</ele>
        <time>2025-10-15T07:06:15.912Z</time>
      </trkpt>
      <trkpt lat="43.84483" lon="4.19654">
        <ele>186.47</ele>
        <time>2025-10-15T07:06:17.476Z</time>
      </trkpt>
      <trkpt lat="43.84485" lon="4.19637">
        <ele>186.46</ele>
        <time>2025-10-15T07:06:19.045Z</time>
      </trkpt>
      <trkpt lat="43.8448" lon="4.19622">
        <ele>186.41</ele>
        <time>2025-10-15T07:06:20.618Z</time>
      </trkpt>
      <trkpt lat="43.84483" lon="4.19596">
        <ele>186.34</ele>
        <time>2025-10-15T07:06:22.197Z</time>
      </trkpt>
      <trkpt lat="43.84488" lon="4.1959">
        <ele>186.25</ele>
        <time>2025-10-15T07:06:23.778Z</time>
      </trkpt>
      <trkpt lat="43.84491" lon="4.19585">
        <ele>185.98</ele>
        <time>2025-10-15T07:06:25.361Z</time>
      </trkpt>
      <trkpt lat="43.84491" lon="4.19585">
        <ele>185.79</ele>
        <time>2025-10-15T07:06:26.944Z</time>
      </trkpt>
      <trkpt lat="43.84511" lon="4.19606">
        <ele>185.59</ele>
        <time>2025-10-15T07:06:28.535Z</time>
      </trkpt>
      <trkpt lat="43.8453" lon="4.19626">
        <ele>185.32</ele>
        <time>2025-10-15T07:06:30.134Z</time>
      </trkpt>
      <trkpt lat="43.84551" lon="4.19643">
        <ele>185</ele>
        <time>2025-10-15T07:06:31.741Z</time>
      </trkpt>
      <trkpt lat="43.84573" lon="4.19661">
        <ele>184.64</ele>
        <time>2025-10-15T07:06:33.356Z</time>
      </trkpt>
      <trkpt lat="43.84593" lon="4.19687">
        <ele>184.27</ele>
        <time>2025-10-15T07:06:34.981Z</time>
      </trkpt>
      <trkpt lat="43.84614" lon="4.19714">
        <ele>183.83</ele>
        <time>2025-10-15T07:06:36.615Z</time>
      </trkpt>
      <trkpt lat="43.84631" lon="4.19729">
        <ele>183.35</ele>
        <time>2025-10-15T07:06:38.256Z</time>
      </trkpt>
      <trkpt lat="43.84656" lon="4.19751">
        <ele>182.81</ele>
        <time>2025-10-15T07:06:39.907Z</time>
      </trkpt>
      <trkpt lat="43.84669" lon="4.1977">
        <ele>182.28</ele>
        <time>2025-10-15T07:06:41.564Z</time>
      </trkpt>
      <trkpt lat="43.8468" lon="4.19791">
        <ele>181.75</ele>
        <time>2025-10-15T07:06:43.228Z</time>
      </trkpt>
      <trkpt lat="43.84701" lon="4.19815">
        <ele>181.22</ele>
        <time>2025-10-15T07:06:44.901Z</time>
      </trkpt>
      <trkpt lat="43.84723" lon="4.19839">
        <ele>180.7</ele>
        <time>2025-10-15T07:06:46.583Z</time>
      </trkpt>
      <trkpt lat="43.84745" lon="4.19857">
        <ele>180.16</ele>
        <time>2025-10-15T07:06:48.274Z</time>
      </trkpt>
      <trkpt lat="43.84768" lon="4.19875">
        <ele>179.63</ele>
        <time>2025-10-15T07:06:49.973Z</time>
      </trkpt>
      <trkpt lat="43.84792" lon="4.19884">
        <ele>179.14</ele>
        <time>2025-10-15T07:06:51.680Z</time>
      </trkpt>
      <trkpt lat="43.84796" lon="4.1989">
        <ele>178.7</ele>
        <time>2025-10-15T07:06:53.390Z</time>
      </trkpt>
      <trkpt lat="43.84809" lon="4.19888">
        <ele>178.25</ele>
        <time>2025-10-15T07:06:55.104Z</time>
      </trkpt>
      <trkpt lat="43.84834" lon="4.19899">
        <ele>177.85</ele>
        <time>2025-10-15T07:06:56.827Z</time>
      </trkpt>
      <trkpt lat="43.84859" lon="4.19909">
        <ele>177.47</ele>
        <time>2025-10-15T07:06:58.558Z</time>
      </trkpt>
      <trkpt lat="43.84884" lon="4.1992">
        <ele>177.1</ele>
        <time>2025-10-15T07:07:00.298Z</time>
      </trkpt>
      <trkpt lat="43.84904" lon="4.19931">
        <ele>176.73</ele>
        <time>2025-10-15T07:07:02.045Z</time>
      </trkpt>
      <trkpt lat="43.84925" lon="4.19942">
        <ele>176.36</ele>
        <time>2025-10-15T07:07:03.800Z</time>
      </trkpt>
      <trkpt lat="43.84945" lon="4.19974">
        <ele>176.03</ele>
        <time>2025-10-15T07:07:05.565Z</time>
      </trkpt>
      <trkpt lat="43.84965" lon="4.20006">
        <ele>175.66</ele>
        <time>2025-10-15T07:07:07.340Z</time>
      </trkpt>
      <trkpt lat="43.84978" lon="4.20015">
        <ele>175.22</ele>
        <time>2025-10-15T07:07:09.120Z</time>
      </trkpt>
      <trkpt lat="43.84993" lon="4.20021">
        <ele>174.7</ele>
        <time>2025-10-15T07:07:10.905Z</time>
      </trkpt>
      <trkpt lat="43.85014" lon="4.20039">
        <ele>174.09</ele>
        <time>2025-10-15T07:07:12.698Z</time>
      </trkpt>
      <trkpt lat="43.85034" lon="4.20058">
        <ele>173.52</ele>
        <time>2025-10-15T07:07:14.499Z</time>
      </trkpt>
      <trkpt lat="43.85048" lon="4.20066">
        <ele>173.03</ele>
        <time>2025-10-15T07:07:16.305Z</time>
      </trkpt>
      <trkpt lat="43.85034" lon="4.20058">
        <ele>171.92</ele>
        <time>2025-10-15T07:07:18.117Z</time>
      </trkpt>
      <trkpt lat="43.85032" lon="4.20068">
        <ele>171.33</ele>
        <time>2025-10-15T07:07:19.931Z</time>
      </trkpt>
      <trkpt lat="43.85015" lon="4.20079">
        <ele>170.74</ele>
        <time>2025-10-15T07:07:21.752Z</time>
      </trkpt>
      <trkpt lat="43.85006" lon="4.201">
        <ele>170.11</ele>
        <time>2025-10-15T07:07:23.578Z</time>
      </trkpt>
      <trkpt lat="43.85004" lon="4.20126">
        <ele>169.39</ele>
        <time>2025-10-15T07:07:25.411Z</time>
      </trkpt>
      <trkpt lat="43.85002" lon="4.20152">
        <ele>168.65</ele>
        <time>2025-10-15T07:07:27.250Z</time>
      </trkpt>
      <trkpt lat="43.85004" lon="4.20182">
        <ele>167.88</ele>
        <time>2025-10-15T07:07:29.096Z</time>
      </trkpt>
      <trkpt lat="43.84998" lon="4.20195">
        <ele>167.21</ele>
        <time>2025-10-15T07:07:30.946Z</time>
      </trkpt>
      <trkpt lat="43.84999" lon="4.20237">
        <ele>166.45</ele>
        <time>2025-10-15T07:07:32.806Z</time>
      </trkpt>
      <trkpt lat="43.85" lon="4.20279">
        <ele>165.69</ele>
        <time>2025-10-15T07:07:34.676Z</time>
      </trkpt>
      <trkpt lat="43.85008" lon="4.20309">
        <ele>164.91</ele>
        <time>2025-10-15T07:07:36.554Z</time>
      </trkpt>
      <trkpt lat="43.85007" lon="4.20331">
        <ele>164.2</ele>
        <time>2025-10-15T07:07:38.437Z</time>
      </trkpt>
      <trkpt lat="43.85006" lon="4.20354">
        <ele>163.53</ele>
        <time>2025-10-15T07:07:40.326Z</time>
      </trkpt>
      <trkpt lat="43.84987" lon="4.20386">
        <ele>162.82</ele>
        <time>2025-10-15T07:07:42.225Z</time>
      </trkpt>
      <trkpt lat="43.84983" lon="4.20414">
        <ele>162.13</ele>
        <time>2025-10-15T07:07:44.131Z</time>
      </trkpt>
      <trkpt lat="43.84987" lon="4.20423">
        <ele>161.5</ele>
        <time>2025-10-15T07:07:46.039Z</time>
      </trkpt>
      <trkpt lat="43.84989" lon="4.20427">
        <ele>160.35</ele>
        <time>2025-10-15T07:07:47.949Z</time>
      </trkpt>
      <trkpt lat="43.85003" lon="4.20442">
        <ele>159.78</ele>
        <time>2025-10-15T07:07:49.864Z</time>
      </trkpt>
      <trkpt lat="43.85017" lon="4.20457">
        <ele>159.23</ele>
        <time>2025-10-15T07:07:51.785Z</time>
      </trkpt>
      <trkpt lat="43.85023" lon="4.20465">
        <ele>158.73</ele>
        <time>2025-10-15T07:07:53.709Z</time>
      </trkpt>
      <trkpt lat="43.85035" lon="4.20494">
        <ele>158.22</ele>
        <time>2025-10-15T07:07:55.641Z</time>
      </trkpt>
      <trkpt lat="43.85047" lon="4.20523">
        <ele>157.8</ele>
        <time>2025-10-15T07:07:57.581Z</time>
      </trkpt>
      <trkpt lat="43.8506" lon="4.20536">
        <ele>157.36</ele>
        <time>2025-10-15T07:07:59.527Z</time>
      </trkpt>
      <trkpt lat="43.85069" lon="4.20558">
        <ele>156.95</ele>
        <time>2025-10-15T07:08:01.479Z</time>
      </trkpt>
      <trkpt lat="43.85079" lon="4.20579">
        <ele>156.58</ele>
        <time>2025-10-15T07:08:03.437Z</time>
      </trkpt>
      <trkpt lat="43.85094" lon="4.206">
        <ele>156.22</ele>
        <time>2025-10-15T07:08:05.402Z</time>
      </trkpt>
      <trkpt lat="43.85094" lon="4.20613">
        <ele>155.88</ele>
        <time>2025-10-15T07:08:07.370Z</time>
      </trkpt>
      <trkpt lat="43.85105" lon="4.20622">
        <ele>155.57</ele>
        <time>2025-10-15T07:08:09.342Z</time>
      </trkpt>
      <trkpt lat="43.85103" lon="4.20654">
        <ele>155.2</ele>
        <time>2025-10-15T07:08:11.322Z</time>
      </trkpt>
      <trkpt lat="43.85109" lon="4.20665">
        <ele>154.89</ele>
        <time>2025-10-15T07:08:13.305Z</time>
      </trkpt>
      <trkpt lat="43.85109" lon="4.20699">
        <ele>154.6</ele>
        <time>2025-10-15T07:08:15.297Z</time>
      </trkpt>
      <trkpt lat="43.85116" lon="4.20725">
        <ele>154.27</ele>
        <time>2025-10-15T07:08:17.295Z</time>
      </trkpt>
      <trkpt lat="43.85117" lon="4.20747">
        <ele>154.01</ele>
        <time>2025-10-15T07:08:19.299Z</time>
      </trkpt>
      <trkpt lat="43.85118" lon="4.2077">
        <ele>153.8</ele>
        <time>2025-10-15T07:08:21.308Z</time>
      </trkpt>
      <trkpt lat="43.85122" lon="4.20781">
        <ele>153.63</ele>
        <time>2025-10-15T07:08:23.320Z</time>
      </trkpt>
      <trkpt lat="43.85139" lon="4.20811">
        <ele>153.46</ele>
        <time>2025-10-15T07:08:25.341Z</time>
      </trkpt>
      <trkpt lat="43.85154" lon="4.20825">
        <ele>153.28</ele>
        <time>2025-10-15T07:08:27.368Z</time>
      </trkpt>
      <trkpt lat="43.85169" lon="4.20839">
        <ele>153.12</ele>
        <time>2025-10-15T07:08:29.401Z</time>
      </trkpt>
      <trkpt lat="43.8518" lon="4.20864">
        <ele>152.93</ele>
        <time>2025-10-15T07:08:31.442Z</time>
      </trkpt>
      <trkpt lat="43.85184" lon="4.20866">
        <ele>152.82</ele>
        <time>2025-10-15T07:08:33.484Z</time>
      </trkpt>
      <trkpt lat="43.85189" lon="4.20869">
        <ele>152.65</ele>
        <time>2025-10-15T07:08:35.528Z</time>
      </trkpt>
      <trkpt lat="43.85201" lon="4.20886">
        <ele>152.55</ele>
        <time>2025-10-15T07:08:37.578Z</time>
      </trkpt>
      <trkpt lat="43.85214" lon="4.20903">
        <ele>152.52</ele>
        <time>2025-10-15T07:08:39.634Z</time>
      </trkpt>
      <trkpt lat="43.85225" lon="4.20912">
        <ele>152.51</ele>
        <time>2025-10-15T07:08:41.694Z</time>
      </trkpt>
      <trkpt lat="43.85234" lon="4.20922">
        <ele>152.5</ele>
        <time>2025-10-15T07:08:43.758Z</time>
      </trkpt>
      <trkpt lat="43.85234" lon="4.20937">
        <ele>152.47</ele>
        <time>2025-10-15T07:08:45.825Z</time>
      </trkpt>
      <trkpt lat="43.85242" lon="4.20952">
        <ele>152.45</ele>
        <time>2025-10-15T07:08:47.897Z</time>
      </trkpt>
      <trkpt lat="43.85255" lon="4.20965">
        <ele>152.45</ele>
        <time>2025-10-15T07:08:49.974Z</time>
      </trkpt>
      <trkpt lat="43.8527" lon="4.20989">
        <ele>152.46</ele>
        <time>2025-10-15T07:08:52.059Z</time>
      </trkpt>
      <trkpt lat="43.85289" lon="4.21005">
        <ele>152.42</ele>
        <time>2025-10-15T07:08:54.151Z</time>
      </trkpt>
      <trkpt lat="43.85309" lon="4.21021">
        <ele>152.34</ele>
        <time>2025-10-15T07:08:56.251Z</time>
      </trkpt>
      <trkpt lat="43.85331" lon="4.21032">
        <ele>152.25</ele>
        <time>2025-10-15T07:08:58.359Z</time>
      </trkpt>
      <trkpt lat="43.85354" lon="4.21042">
        <ele>152.11</ele>
        <time>2025-10-15T07:09:00.475Z</time>
      </trkpt>
      <trkpt lat="43.8538" lon="4.21051">
        <ele>151.92</ele>
        <time>2025-10-15T07:09:02.599Z</time>
      </trkpt>
      <trkpt lat="43.85405" lon="4.2106">
        <ele>151.75</ele>
        <time>2025-10-15T07:09:04.732Z</time>
      </trkpt>
      <trkpt lat="43.85422" lon="4.21061">
        <ele>151.5</ele>
        <time>2025-10-15T07:09:06.871Z</time>
      </trkpt>
      <trkpt lat="43.8544" lon="4.21062">
        <ele>151.23</ele>
        <time>2025-10-15T07:09:09.016Z</time>
      </trkpt>
      <trkpt lat="43.85453" lon="4.21072">
        <ele>150.99</ele>
        <time>2025-10-15T07:09:11.166Z</time>
      </trkpt>
      <trkpt lat="43.85473" lon="4.21077">
        <ele>150.72</ele>
        <time>2025-10-15T07:09:13.323Z</time>
      </trkpt>
      <trkpt lat="43.85493" lon="4.21081">
        <ele>150.48</ele>
        <time>2025-10-15T07:09:15.487Z</time>
      </trkpt>
      <trkpt lat="43.85521" lon="4.21099">
        <ele>150.26</ele>
        <time>2025-10-15T07:09:17.661Z</time>
      </trkpt>
      <trkpt lat="43.85549" lon="4.21117">
        <ele>150.05</ele>
        <time>2025-10-15T07:09:19.845Z</time>
      </trkpt>
      <trkpt lat="43.85577" lon="4.21135">
        <ele>149.8</ele>
        <time>2025-10-15T07:09:22.039Z</time>
      </trkpt>
      <trkpt lat="43.85603" lon="4.2113">
        <ele>149.43</ele>
        <time>2025-10-15T07:09:24.242Z</time>
      </trkpt>
      <trkpt lat="43.85624" lon="4.2114">
        <ele>149.08</ele>
        <time>2025-10-15T07:09:26.452Z</time>
      </trkpt>
      <trkpt lat="43.85646" lon="4.2115">
        <ele>148.75</ele>
        <time>2025-10-15T07:09:28.670Z</time>
      </trkpt>
      <trkpt lat="43.85676" lon="4.21152">
        <ele>148.47</ele>
        <time>2025-10-15T07:09:30.898Z</time>
      </trkpt>
      <trkpt lat="43.85701" lon="4.21165">
        <ele>148.25</ele>
        <time>2025-10-15T07:09:33.135Z</time>
      </trkpt>
      <trkpt lat="43.85712" lon="4.21158">
        <ele>147.97</ele>
        <time>2025-10-15T07:09:35.376Z</time>
      </trkpt>
      <trkpt lat="43.85733" lon="4.21155">
        <ele>147.73</ele>
        <time>2025-10-15T07:09:37.624Z</time>
      </trkpt>
      <trkpt lat="43.85753" lon="4.21152">
        <ele>147.41</ele>
        <time>2025-10-15T07:09:39.879Z</time>
      </trkpt>
      <trkpt lat="43.85757" lon="4.21133">
        <ele>147.13</ele>
        <time>2025-10-15T07:09:42.139Z</time>
      </trkpt>
      <trkpt lat="43.85772" lon="4.21122">
        <ele>146.83</ele>
        <time>2025-10-15T07:09:44.404Z</time>
      </trkpt>
      <trkpt lat="43.85787" lon="4.21111">
        <ele>146.53</ele>
        <time>2025-10-15T07:09:46.675Z</time>
      </trkpt>
      <trkpt lat="43.858" lon="4.21095">
        <ele>146.31</ele>
        <time>2025-10-15T07:09:48.952Z</time>
      </trkpt>
      <trkpt lat="43.85813" lon="4.21079">
        <ele>146</ele>
        <time>2025-10-15T07:09:51.234Z</time>
      </trkpt>
      <trkpt lat="43.85831" lon="4.21046">
        <ele>145.66</ele>
        <time>2025-10-15T07:09:53.527Z</time>
      </trkpt>
      <trkpt lat="43.85849" lon="4.21012">
        <ele>145.39</ele>
        <time>2025-10-15T07:09:55.830Z</time>
      </trkpt>
      <trkpt lat="43.85865" lon="4.21006">
        <ele>145.22</ele>
        <time>2025-10-15T07:09:58.138Z</time>
      </trkpt>
      <trkpt lat="43.85864" lon="4.21006">
        <ele>145.05</ele>
        <time>2025-10-15T07:10:00.446Z</time>
      </trkpt>
      <trkpt lat="43.85882" lon="4.21002">
        <ele>144.88</ele>
        <time>2025-10-15T07:10:02.760Z</time>
      </trkpt>
      <trkpt lat="43.85899" lon="4.21002">
        <ele>144.7</ele>
        <time>2025-10-15T07:10:05.079Z</time>
      </trkpt>
      <trkpt lat="43.85902" lon="4.21033">
        <ele>144.64</ele>
        <time>2025-10-15T07:10:07.406Z</time>
      </trkpt>
      <trkpt lat="43.85905" lon="4.21064">
        <ele>144.65</ele>
        <time>2025-10-15T07:10:09.741Z</time>
      </trkpt>
      <trkpt lat="43.8592" lon="4.21079">
        <ele>144.63</ele>
        <time>2025-10-15T07:10:12.082Z</time>
      </trkpt>
      <trkpt lat="43.85936" lon="4.21086">
        <ele>144.51</ele>
        <time>2025-10-15T07:10:14.428Z</time>
      </trkpt>
      <trkpt lat="43.85952" lon="4.21094">
        <ele>144.37</ele>
        <time>2025-10-15T07:10:16.780Z</time>
      </trkpt>
      <trkpt lat="43.8597" lon="4.21124">
        <ele>144.28</ele>
        <time>2025-10-15T07:10:19.141Z</time>
      </trkpt>
      <trkpt lat="43.85985" lon="4.21145">
        <ele>144.18</ele>
        <time>2025-10-15T07:10:21.509Z</time>
      </trkpt>
      <trkpt lat="43.86" lon="4.21167">
        <ele>144.06</ele>
        <time>2025-10-15T07:10:23.885Z</time>
      </trkpt>
      <trkpt lat="43.86017" lon="4.21199">
        <ele>143.93</ele>
        <time>2025-10-15T07:10:26.270Z</time>
      </trkpt>
      <trkpt lat="43.86028" lon="4.21208">
        <ele>143.88</ele>
        <time>2025-10-15T07:10:28.659Z</time>
      </trkpt>
      <trkpt lat="43.86028" lon="4.21208">
        <ele>143.87</ele>
        <time>2025-10-15T07:10:31.048Z</time>
      </trkpt>
      <trkpt lat="43.86028" lon="4.21208">
        <ele>143.93</ele>
        <time>2025-10-15T07:10:33.437Z</time>
      </trkpt>
      <trkpt lat="43.86028" lon="4.21208">
        <ele>143.98</ele>
        <time>2025-10-15T07:10:35.826Z</time>
      </trkpt>
      <trkpt lat="43.86032" lon="4.21214">
        <ele>144.05</ele>
        <time>2025-10-15T07:10:38.218Z</time>
      </trkpt>
      <trkpt lat="43.86025" lon="4.21233">
        <ele>144.19</ele>
        <time>2025-10-15T07:10:40.615Z</time>
      </trkpt>
      <trkpt lat="43.86005" lon="4.21245">
        <ele>144.36</ele>
        <time>2025-10-15T07:10:43.019Z</time>
      </trkpt>
      <trkpt lat="43.85985" lon="4.21257">
        <ele>144.49</ele>
        <time>2025-10-15T07:10:45.430Z</time>
      </trkpt>
      <trkpt lat="43.85961" lon="4.21276">
        <ele>144.64</ele>
        <time>2025-10-15T07:10:47.851Z</time>
      </trkpt>
      <trkpt lat="43.85937" lon="4.21296">
        <ele>144.73</ele>
        <time>2025-10-15T07:10:50.281Z</time>
      </trkpt>
      <trkpt lat="43.85914" lon="4.21315">
        <ele>144.81</ele>
        <time>2025-10-15T07:10:52.720Z</time>
      </trkpt>
      <trkpt lat="43.85912" lon="4.21358">
        <ele>144.95</ele>
        <time>2025-10-15T07:10:55.169Z</time>
      </trkpt>
      <trkpt lat="43.85899" lon="4.21379">
        <ele>145.13</ele>
        <time>2025-10-15T07:10:57.625Z</time>
      </trkpt>
      <trkpt lat="43.85875" lon="4.21407">
        <ele>145.4</ele>
        <time>2025-10-15T07:11:00.091Z</time>
      </trkpt>
      <trkpt lat="43.85875" lon="4.21418">
        <ele>145.58</ele>
        <time>2025-10-15T07:11:02.560Z</time>
      </trkpt>
      <trkpt lat="43.85864" lon="4.21438">
        <ele>145.8</ele>
        <time>2025-10-15T07:11:05.035Z</time>
      </trkpt>
      <trkpt lat="43.85854" lon="4.21459">
        <ele>145.98</ele>
        <time>2025-10-15T07:11:07.516Z</time>
      </trkpt>
      <trkpt lat="43.85854" lon="4.21461">
        <ele>146.14</ele>
        <time>2025-10-15T07:11:09.998Z</time>
      </trkpt>
      <trkpt lat="43.85839" lon="4.21454">
        <ele>146.29</ele>
        <time>2025-10-15T07:11:12.485Z</time>
      </trkpt>
      <trkpt lat="43.8583" lon="4.21444">
        <ele>146.4</ele>
        <time>2025-10-15T07:11:14.976Z</time>
      </trkpt>
      <trkpt lat="43.85819" lon="4.21444">
        <ele>146.53</ele>
        <time>2025-10-15T07:11:17.470Z</time>
      </trkpt>
      <trkpt lat="43.85809" lon="4.21435">
        <ele>146.64</ele>
        <time>2025-10-15T07:11:19.968Z</time>
      </trkpt>
      <trkpt lat="43.85809" lon="4.21435">
        <ele>146.75</ele>
        <time>2025-10-15T07:11:22.466Z</time>
      </trkpt>
      <trkpt lat="43.85804" lon="4.21431">
        <ele>146.85</ele>
        <time>2025-10-15T07:11:24.966Z</time>
      </trkpt>
      <trkpt lat="43.85781" lon="4.21433">
        <ele>146.98</ele>
        <time>2025-10-15T07:11:27.474Z</time>
      </trkpt>
      <trkpt lat="43.85751" lon="4.21439">
        <ele>147.05</ele>
        <time>2025-10-15T07:11:29.992Z</time>
      </trkpt>
      <trkpt lat="43.85721" lon="4.21446">
        <ele>147.11</ele>
        <time>2025-10-15T07:11:32.520Z</time>
      </trkpt>
      <trkpt lat="43.85699" lon="4.21446">
        <ele>147.15</ele>
        <time>2025-10-15T07:11:35.055Z</time>
      </trkpt>
      <trkpt lat="43.85675" lon="4.21454">
        <ele>147.17</ele>
        <time>2025-10-15T07:11:37.599Z</time>
      </trkpt>
      <trkpt lat="43.85651" lon="4.21463">
        <ele>147.26</ele>
        <time>2025-10-15T07:11:40.151Z</time>
      </trkpt>
      <trkpt lat="43.85626" lon="4.21472">
        <ele>147.39</ele>
        <time>2025-10-15T07:11:42.712Z</time>
      </trkpt>
      <trkpt lat="43.85598" lon="4.21472">
        <ele>147.5</ele>
        <time>2025-10-15T07:11:45.282Z</time>
      </trkpt>
      <trkpt lat="43.85582" lon="4.21475">
        <ele>147.55</ele>
        <time>2025-10-15T07:11:47.857Z</time>
      </trkpt>
      <trkpt lat="43.85566" lon="4.21478">
        <ele>147.61</ele>
        <time>2025-10-15T07:11:50.438Z</time>
      </trkpt>
      <trkpt lat="43.85547" lon="4.21493">
        <ele>147.66</ele>
        <time>2025-10-15T07:11:53.026Z</time>
      </trkpt>
      <trkpt lat="43.85521" lon="4.21502">
        <ele>147.82</ele>
        <time>2025-10-15T07:11:55.623Z</time>
      </trkpt>
      <trkpt lat="43.85502" lon="4.21517">
        <ele>147.93</ele>
        <time>2025-10-15T07:11:58.227Z</time>
      </trkpt>
      <trkpt lat="43.85478" lon="4.21525">
        <ele>148.07</ele>
        <time>2025-10-15T07:12:00.839Z</time>
      </trkpt>
      <trkpt lat="43.8546" lon="4.21549">
        <ele>148.14</ele>
        <time>2025-10-15T07:12:03.460Z</time>
      </trkpt>
      <trkpt lat="43.85442" lon="4.21572">
        <ele>148.29</ele>
        <time>2025-10-15T07:12:06.089Z</time>
      </trkpt>
      <trkpt lat="43.85417" lon="4.21594">
        <ele>148.45</ele>
        <time>2025-10-15T07:12:08.728Z</time>
      </trkpt>
      <trkpt lat="43.85392" lon="4.21615">
        <ele>148.62</ele>
        <time>2025-10-15T07:12:11.376Z</time>
      </trkpt>
      <trkpt lat="43.85362" lon="4.21628">
        <ele>148.82</ele>
        <time>2025-10-15T07:12:14.035Z</time>
      </trkpt>
      <trkpt lat="43.85332" lon="4.21641">
        <ele>149.12</ele>
        <time>2025-10-15T07:12:16.704Z</time>
      </trkpt>
      <trkpt lat="43.85314" lon="4.21644">
        <ele>149.38</ele>
        <time>2025-10-15T07:12:19.380Z</time>
      </trkpt>
      <trkpt lat="43.85296" lon="4.21648">
        <ele>149.71</ele>
        <time>2025-10-15T07:12:22.062Z</time>
      </trkpt>
      <trkpt lat="43.85266" lon="4.2166">
        <ele>150.08</ele>
        <time>2025-10-15T07:12:24.754Z</time>
      </trkpt>
      <trkpt lat="43.85245" lon="4.21661">
        <ele>150.53</ele>
        <time>2025-10-15T07:12:27.453Z</time>
      </trkpt>
      <trkpt lat="43.85225" lon="4.21663">
        <ele>151.01</ele>
        <time>2025-10-15T07:12:30.159Z</time>
      </trkpt>
      <trkpt lat="43.85212" lon="4.21667">
        <ele>151.47</ele>
        <time>2025-10-15T07:12:32.869Z</time>
      </trkpt>
      <trkpt lat="43.85186" lon="4.21682">
        <ele>151.93</ele>
        <time>2025-10-15T07:12:35.589Z</time>
      </trkpt>
      <trkpt lat="43.85179" lon="4.21688">
        <ele>152.41</ele>
        <time>2025-10-15T07:12:38.312Z</time>
      </trkpt>
      <trkpt lat="43.85174" lon="4.21693">
        <ele>153.51</ele>
        <time>2025-10-15T07:12:41.037Z</time>
      </trkpt>
      <trkpt lat="43.85171" lon="4.21699">
        <ele>154.1</ele>
        <time>2025-10-15T07:12:43.763Z</time>
      </trkpt>
      <trkpt lat="43.85174" lon="4.21714">
        <ele>154.72</ele>
        <time>2025-10-15T07:12:46.493Z</time>
      </trkpt>
      <trkpt lat="43.85182" lon="4.21753">
        <ele>155.45</ele>
        <time>2025-10-15T07:12:49.233Z</time>
      </trkpt>
      <trkpt lat="43.85182" lon="4.21793">
        <ele>156.17</ele>
        <time>2025-10-15T07:12:51.983Z</time>
      </trkpt>
      <trkpt lat="43.85191" lon="4.21832">
        <ele>156.89</ele>
        <time>2025-10-15T07:12:54.742Z</time>
      </trkpt>
      <trkpt lat="43.85193" lon="4.2187">
        <ele>157.67</ele>
        <time>2025-10-15T07:12:57.511Z</time>
      </trkpt>
      <trkpt lat="43.85195" lon="4.21909">
        <ele>158.43</ele>
        <time>2025-10-15T07:13:00.289Z</time>
      </trkpt>
      <trkpt lat="43.85197" lon="4.21947">
        <ele>159.14</ele>
        <time>2025-10-15T07:13:03.076Z</time>
      </trkpt>
      <trkpt lat="43.85199" lon="4.21986">
        <ele>159.86</ele>
        <time>2025-10-15T07:13:05.872Z</time>
      </trkpt>
      <trkpt lat="43.85201" lon="4.22024">
        <ele>160.49</ele>
        <time>2025-10-15T07:13:08.678Z</time>
      </trkpt>
      <trkpt lat="43.85204" lon="4.22063">
        <ele>161.14</ele>
        <time>2025-10-15T07:13:11.493Z</time>
      </trkpt>
      <trkpt lat="43.85206" lon="4.221">
        <ele>161.76</ele>
        <time>2025-10-15T07:13:14.317Z</time>
      </trkpt>
      <trkpt lat="43.85212" lon="4.22124">
        <ele>162.34</ele>
        <time>2025-10-15T07:13:17.147Z</time>
      </trkpt>
      <trkpt lat="43.85225" lon="4.22158">
        <ele>162.86</ele>
        <time>2025-10-15T07:13:19.987Z</time>
      </trkpt>
      <trkpt lat="43.85239" lon="4.22185">
        <ele>163.27</ele>
        <time>2025-10-15T07:13:22.835Z</time>
      </trkpt>
      <trkpt lat="43.85253" lon="4.22212">
        <ele>163.74</ele>
        <time>2025-10-15T07:13:25.691Z</time>
      </trkpt>
      <trkpt lat="43.85268" lon="4.22239">
        <ele>164.15</ele>
        <time>2025-10-15T07:13:28.555Z</time>
      </trkpt>
      <trkpt lat="43.85282" lon="4.22266">
        <ele>164.58</ele>
        <time>2025-10-15T07:13:31.427Z</time>
      </trkpt>
      <trkpt lat="43.85282" lon="4.22266">
        <ele>164.91</ele>
        <time>2025-10-15T07:13:34.299Z</time>
      </trkpt>
      <trkpt lat="43.85285" lon="4.22272">
        <ele>165.22</ele>
        <time>2025-10-15T07:13:37.173Z</time>
      </trkpt>
      <trkpt lat="43.85281" lon="4.22276">
        <ele>165.46</ele>
        <time>2025-10-15T07:13:40.048Z</time>
      </trkpt>
      <trkpt lat="43.85256" lon="4.22279">
        <ele>165.59</ele>
        <time>2025-10-15T07:13:42.932Z</time>
      </trkpt>
      <trkpt lat="43.85231" lon="4.22282">
        <ele>165.76</ele>
        <time>2025-10-15T07:13:45.824Z</time>
      </trkpt>
      <trkpt lat="43.85206" lon="4.22285">
        <ele>165.98</ele>
        <time>2025-10-15T07:13:48.724Z</time>
      </trkpt>
      <trkpt lat="43.85204" lon="4.22313">
        <ele>166.2</ele>
        <time>2025-10-15T07:13:51.631Z</time>
      </trkpt>
      <trkpt lat="43.85197" lon="4.22347">
        <ele>166.46</ele>
        <time>2025-10-15T07:13:54.547Z</time>
      </trkpt>
      <trkpt lat="43.85193" lon="4.22362">
        <ele>166.78</ele>
        <time>2025-10-15T07:13:57.467Z</time>
      </trkpt>
      <trkpt lat="43.8518" lon="4.22382">
        <ele>167.09</ele>
        <time>2025-10-15T07:14:00.393Z</time>
      </trkpt>
      <trkpt lat="43.85167" lon="4.22403">
        <ele>167.52</ele>
        <time>2025-10-15T07:14:03.326Z</time>
      </trkpt>
      <trkpt lat="43.85152" lon="4.22415">
        <ele>167.92</ele>
        <time>2025-10-15T07:14:06.264Z</time>
      </trkpt>
      <trkpt lat="43.85137" lon="4.22426">
        <ele>168.32</ele>
        <time>2025-10-15T07:14:09.208Z</time>
      </trkpt>
      <trkpt lat="43.85128" lon="4.22437">
        <ele>168.69</ele>
        <time>2025-10-15T07:14:12.156Z</time>
      </trkpt>
      <trkpt lat="43.85105" lon="4.22433">
        <ele>169.11</ele>
        <time>2025-10-15T07:14:15.112Z</time>
      </trkpt>
      <trkpt lat="43.8509" lon="4.22435">
        <ele>169.54</ele>
        <time>2025-10-15T07:14:18.073Z</time>
      </trkpt>
      <trkpt lat="43.85086" lon="4.22467">
        <ele>170.01</ele>
        <time>2025-10-15T07:14:21.042Z</time>
      </trkpt>
      <trkpt lat="43.85086" lon="4.22502">
        <ele>170.46</ele>
        <time>2025-10-15T07:14:24.019Z</time>
      </trkpt>
      <trkpt lat="43.85068" lon="4.22529">
        <ele>170.98</ele>
        <time>2025-10-15T07:14:27.005Z</time>
      </trkpt>
      <trkpt lat="43.85063" lon="4.22554">
        <ele>171.48</ele>
        <time>2025-10-15T07:14:29.997Z</time>
      </trkpt>
      <trkpt lat="43.85058" lon="4.22579">
        <ele>171.93</ele>
        <time>2025-10-15T07:14:32.995Z</time>
      </trkpt>
      <trkpt lat="43.85049" lon="4.226">
        <ele>172.32</ele>
        <time>2025-10-15T07:14:35.999Z</time>
      </trkpt>
      <trkpt lat="43.85047" lon="4.22622">
        <ele>172.7</ele>
        <time>2025-10-15T07:14:39.009Z</time>
      </trkpt>
      <trkpt lat="43.85041" lon="4.22639">
        <ele>173.07</ele>
        <time>2025-10-15T07:14:42.023Z</time>
      </trkpt>
      <trkpt lat="43.8503" lon="4.22656">
        <ele>173.41</ele>
        <time>2025-10-15T07:14:45.043Z</time>
      </trkpt>
      <trkpt lat="43.85015" lon="4.22665">
        <ele>173.72</ele>
        <time>2025-10-15T07:14:48.068Z</time>
      </trkpt>
      <trkpt lat="43.84998" lon="4.22682">
        <ele>174.07</ele>
        <time>2025-10-15T07:14:51.100Z</time>
      </trkpt>
      <trkpt lat="43.84983" lon="4.2269">
        <ele>174.4</ele>
        <time>2025-10-15T07:14:54.138Z</time>
      </trkpt>
      <trkpt lat="43.8497" lon="4.22705">
        <ele>174.74</ele>
        <time>2025-10-15T07:14:57.181Z</time>
      </trkpt>
      <trkpt lat="43.84963" lon="4.22726">
        <ele>175.02</ele>
        <time>2025-10-15T07:15:00.230Z</time>
      </trkpt>
      <trkpt lat="43.84957" lon="4.22746">
        <ele>175.32</ele>
        <time>2025-10-15T07:15:03.284Z</time>
      </trkpt>
      <trkpt lat="43.84945" lon="4.22768">
        <ele>175.59</ele>
        <time>2025-10-15T07:15:06.345Z</time>
      </trkpt>
      <trkpt lat="43.84933" lon="4.22789">
        <ele>175.84</ele>
        <time>2025-10-15T07:15:09.412Z</time>
      </trkpt>
      <trkpt lat="43.84927" lon="4.22805">
        <ele>176.05</ele>
        <time>2025-10-15T07:15:12.483Z</time>
      </trkpt>
      <trkpt lat="43.8492" lon="4.22821">
        <ele>176.41</ele>
        <time>2025-10-15T07:15:15.559Z</time>
      </trkpt>
      <trkpt lat="43.84942" lon="4.22842">
        <ele>176.58</ele>
        <time>2025-10-15T07:15:18.644Z</time>
      </trkpt>
      <trkpt lat="43.84963" lon="4.22862">
        <ele>176.77</ele>
        <time>2025-10-15T07:15:21.737Z</time>
      </trkpt>
      <trkpt lat="43.84984" lon="4.22868">
        <ele>176.92</ele>
        <time>2025-10-15T07:15:24.837Z</time>
      </trkpt>
      <trkpt lat="43.85005" lon="4.22873">
        <ele>177.08</ele>
        <time>2025-10-15T07:15:27.944Z</time>
      </trkpt>
      <trkpt lat="43.85026" lon="4.22879">
        <ele>177.26</ele>
        <time>2025-10-15T07:15:31.058Z</time>
      </trkpt>
      <trkpt lat="43.85045" lon="4.2288">
        <ele>177.45</ele>
        <time>2025-10-15T07:15:34.179Z</time>
      </trkpt>
      <trkpt lat="43.85064" lon="4.22881">
        <ele>177.67</ele>
        <time>2025-10-15T07:15:37.306Z</time>
      </trkpt>
      <trkpt lat="43.85094" lon="4.22892">
        <ele>177.87</ele>
        <time>2025-10-15T07:15:40.444Z</time>
      </trkpt>
      <trkpt lat="43.85118" lon="4.22916">
        <ele>178.07</ele>
        <time>2025-10-15T07:15:43.591Z</time>
      </trkpt>
      <trkpt lat="43.85122" lon="4.22929">
        <ele>178.31</ele>
        <time>2025-10-15T07:15:46.742Z</time>
      </trkpt>
      <trkpt lat="43.85114" lon="4.2294">
        <ele>178.74</ele>
        <time>2025-10-15T07:15:49.897Z</time>
      </trkpt>
      <trkpt lat="43.85105" lon="4.22952">
        <ele>179.39</ele>
        <time>2025-10-15T07:15:53.056Z</time>
      </trkpt>
      <trkpt lat="43.85081" lon="4.22971">
        <ele>179.63</ele>
        <time>2025-10-15T07:15:56.224Z</time>
      </trkpt>
      <trkpt lat="43.85068" lon="4.23006">
        <ele>179.82</ele>
        <time>2025-10-15T07:15:59.401Z</time>
      </trkpt>
      <trkpt lat="43.85051" lon="4.23026">
        <ele>180.05</ele>
        <time>2025-10-15T07:16:02.586Z</time>
      </trkpt>
      <trkpt lat="43.85034" lon="4.23047">
        <ele>180.34</ele>
        <time>2025-10-15T07:16:05.778Z</time>
      </trkpt>
      <trkpt lat="43.85016" lon="4.2308">
        <ele>180.67</ele>
        <time>2025-10-15T07:16:08.980Z</time>
      </trkpt>
      <trkpt lat="43.84998" lon="4.23113">
        <ele>180.91</ele>
        <time>2025-10-15T07:16:12.193Z</time>
      </trkpt>
      <trkpt lat="43.84991" lon="4.23147">
        <ele>181.2</ele>
        <time>2025-10-15T07:16:15.414Z</time>
      </trkpt>
      <trkpt lat="43.84985" lon="4.2318">
        <ele>181.47</ele>
        <time>2025-10-15T07:16:18.643Z</time>
      </trkpt>
      <trkpt lat="43.84978" lon="4.23214">
        <ele>181.66</ele>
        <time>2025-10-15T07:16:21.881Z</time>
      </trkpt>
      <trkpt lat="43.84961" lon="4.23246">
        <ele>181.87</ele>
        <time>2025-10-15T07:16:25.128Z</time>
      </trkpt>
      <trkpt lat="43.84944" lon="4.23278">
        <ele>182.18</ele>
        <time>2025-10-15T07:16:28.385Z</time>
      </trkpt>
      <trkpt lat="43.84938" lon="4.23315">
        <ele>182.45</ele>
        <time>2025-10-15T07:16:31.651Z</time>
      </trkpt>
      <trkpt lat="43.84923" lon="4.23319">
        <ele>182.77</ele>
        <time>2025-10-15T07:16:34.922Z</time>
      </trkpt>
      <trkpt lat="43.84921" lon="4.23318">
        <ele>183.04</ele>
        <time>2025-10-15T07:16:38.194Z</time>
      </trkpt>
      <trkpt lat="43.84921" lon="4.23318">
        <ele>183.32</ele>
        <time>2025-10-15T07:16:41.466Z</time>
      </trkpt>
      <trkpt lat="43.84912" lon="4.23315">
        <ele>183.62</ele>
        <time>2025-10-15T07:16:44.741Z</time>
      </trkpt>
      <trkpt lat="43.84896" lon="4.23316">
        <ele>183.92</ele>
        <time>2025-10-15T07:16:48.021Z</time>
      </trkpt>
      <trkpt lat="43.8488" lon="4.23317">
        <ele>184.17</ele>
        <time>2025-10-15T07:16:51.307Z</time>
      </trkpt>
      <trkpt lat="43.84869" lon="4.23326">
        <ele>184.45</ele>
        <time>2025-10-15T07:16:54.597Z</time>
      </trkpt>
      <trkpt lat="43.84857" lon="4.23343">
        <ele>184.81</ele>
        <time>2025-10-15T07:16:57.892Z</time>
      </trkpt>
      <trkpt lat="43.84845" lon="4.2336">
        <ele>185.15</ele>
        <time>2025-10-15T07:17:01.193Z</time>
      </trkpt>
      <trkpt lat="43.84841" lon="4.23388">
        <ele>185.46</ele>
        <time>2025-10-15T07:17:04.501Z</time>
      </trkpt>
      <trkpt lat="43.8483" lon="4.2339">
        <ele>185.78</ele>
        <time>2025-10-15T07:17:07.813Z</time>
      </trkpt>
      <trkpt lat="43.84822" lon="4.23379">
        <ele>186.1</ele>
        <time>2025-10-15T07:17:11.129Z</time>
      </trkpt>
      <trkpt lat="43.84813" lon="4.2339">
        <ele>186.41</ele>
        <time>2025-10-15T07:17:14.448Z</time>
      </trkpt>
      <trkpt lat="43.84804" lon="4.23411">
        <ele>186.74</ele>
        <time>2025-10-15T07:17:17.773Z</time>
      </trkpt>
      <trkpt lat="43.84794" lon="4.23422">
        <ele>187.08</ele>
        <time>2025-10-15T07:17:21.103Z</time>
      </trkpt>
      <trkpt lat="43.84779" lon="4.23424">
        <ele>187.36</ele>
        <time>2025-10-15T07:17:24.438Z</time>
      </trkpt>
      <trkpt lat="43.84751" lon="4.23418">
        <ele>187.62</ele>
        <time>2025-10-15T07:17:27.782Z</time>
      </trkpt>
      <trkpt lat="43.84727" lon="4.23433">
        <ele>187.92</ele>
        <time>2025-10-15T07:17:31.135Z</time>
      </trkpt>
      <trkpt lat="43.84704" lon="4.23448">
        <ele>188.22</ele>
        <time>2025-10-15T07:17:34.496Z</time>
      </trkpt>
      <trkpt lat="43.84691" lon="4.2345">
        <ele>188.47</ele>
        <time>2025-10-15T07:17:37.862Z</time>
      </trkpt>
      <trkpt lat="43.84684" lon="4.23465">
        <ele>188.72</ele>
        <time>2025-10-15T07:17:41.232Z</time>
      </trkpt>
      <trkpt lat="43.84665" lon="4.23469">
        <ele>188.93</ele>
        <time>2025-10-15T07:17:44.609Z</time>
      </trkpt>
      <trkpt lat="43.84648" lon="4.23468">
        <ele>189.13</ele>
        <time>2025-10-15T07:17:47.991Z</time>
      </trkpt>
      <trkpt lat="43.84631" lon="4.23467">
        <ele>189.29</ele>
        <time>2025-10-15T07:17:51.379Z</time>
      </trkpt>
      <trkpt lat="43.84615" lon="4.23458">
        <ele>189.43</ele>
        <time>2025-10-15T07:17:54.773Z</time>
      </trkpt>
      <trkpt lat="43.84598" lon="4.23448">
        <ele>189.56</ele>
        <time>2025-10-15T07:17:58.173Z</time>
      </trkpt>
      <trkpt lat="43.84579" lon="4.23441">
        <ele>189.71</ele>
        <time>2025-10-15T07:18:01.579Z</time>
      </trkpt>
      <trkpt lat="43.84566" lon="4.23444">
        <ele>189.87</ele>
        <time>2025-10-15T07:18:04.990Z</time>
      </trkpt>
      <trkpt lat="43.8456" lon="4.23454">
        <ele>190.02</ele>
        <time>2025-10-15T07:18:08.404Z</time>
      </trkpt>
      <trkpt lat="43.84575" lon="4.2348">
        <ele>190.15</ele>
        <time>2025-10-15T07:18:11.826Z</time>
      </trkpt>
      <trkpt lat="43.84586" lon="4.23491">
        <ele>190.26</ele>
        <time>2025-10-15T07:18:15.252Z</time>
      </trkpt>
      <trkpt lat="43.84606" lon="4.235">
        <ele>190.43</ele>
        <time>2025-10-15T07:18:18.686Z</time>
      </trkpt>
      <trkpt lat="43.8462" lon="4.23506">
        <ele>190.63</ele>
        <time>2025-10-15T07:18:22.124Z</time>
      </trkpt>
      <trkpt lat="43.84622" lon="4.23547">
        <ele>190.64</ele>
        <time>2025-10-15T07:18:25.572Z</time>
      </trkpt>
      <trkpt lat="43.84633" lon="4.23572">
        <ele>190.62</ele>
        <time>2025-10-15T07:18:29.027Z</time>
      </trkpt>
      <trkpt lat="43.84644" lon="4.23607">
        <ele>190.54</ele>
        <time>2025-10-15T07:18:32.491Z</time>
      </trkpt>
      <trkpt lat="43.8466" lon="4.23625">
        <ele>190.49</ele>
        <time>2025-10-15T07:18:35.962Z</time>
      </trkpt>
      <trkpt lat="43.84676" lon="4.23643">
        <ele>190.4</ele>
        <time>2025-10-15T07:18:39.440Z</time>
      </trkpt>
      <trkpt lat="43.84686" lon="4.2365">
        <ele>190.24</ele>
        <time>2025-10-15T07:18:42.922Z</time>
      </trkpt>
      <trkpt lat="43.84697" lon="4.23662">
        <ele>190.05</ele>
        <time>2025-10-15T07:18:46.409Z</time>
      </trkpt>
      <trkpt lat="43.84705" lon="4.23691">
        <ele>189.83</ele>
        <time>2025-10-15T07:18:49.903Z</time>
      </trkpt>
      <trkpt lat="43.84712" lon="4.2372">
        <ele>189.49</ele>
        <time>2025-10-15T07:18:53.405Z</time>
      </trkpt>
      <trkpt lat="43.84739" lon="4.23729">
        <ele>189.06</ele>
        <time>2025-10-15T07:18:56.916Z</time>
      </trkpt>
      <trkpt lat="43.84765" lon="4.23738">
        <ele>188.63</ele>
        <time>2025-10-15T07:19:00.436Z</time>
      </trkpt>
      <trkpt lat="43.84792" lon="4.23746">
        <ele>188.11</ele>
        <time>2025-10-15T07:19:03.965Z</time>
      </trkpt>
      <trkpt lat="43.84798" lon="4.23755">
        <ele>187.52</ele>
        <time>2025-10-15T07:19:07.497Z</time>
      </trkpt>
      <trkpt lat="43.84809" lon="4.23774">
        <ele>186.82</ele>
        <time>2025-10-15T07:19:11.035Z</time>
      </trkpt>
      <trkpt lat="43.84813" lon="4.23793">
        <ele>186.1</ele>
        <time>2025-10-15T07:19:14.578Z</time>
      </trkpt>
      <trkpt lat="43.84809" lon="4.23819">
        <ele>185.42</ele>
        <time>2025-10-15T07:19:18.127Z</time>
      </trkpt>
      <trkpt lat="43.84809" lon="4.23832">
        <ele>184.7</ele>
        <time>2025-10-15T07:19:21.679Z</time>
      </trkpt>
      <trkpt lat="43.8482" lon="4.23866">
        <ele>183.96</ele>
        <time>2025-10-15T07:19:25.240Z</time>
      </trkpt>
      <trkpt lat="43.8483" lon="4.23888">
        <ele>183.17</ele>
        <time>2025-10-15T07:19:28.808Z</time>
      </trkpt>
      <trkpt lat="43.84845" lon="4.23912">
        <ele>182.33</ele>
        <time>2025-10-15T07:19:32.383Z</time>
      </trkpt>
      <trkpt lat="43.8486" lon="4.23937">
        <ele>181.52</ele>
        <time>2025-10-15T07:19:35.966Z</time>
      </trkpt>
      <trkpt lat="43.8486" lon="4.23956">
        <ele>180.75</ele>
        <time>2025-10-15T07:19:39.554Z</time>
      </trkpt>
      <trkpt lat="43.84869" lon="4.2398">
        <ele>179.96</ele>
        <time>2025-10-15T07:19:43.148Z</time>
      </trkpt>
      <trkpt lat="43.84895" lon="4.23993">
        <ele>179.15</ele>
        <time>2025-10-15T07:19:46.751Z</time>
      </trkpt>
      <trkpt lat="43.84913" lon="4.24014">
        <ele>178.43</ele>
        <time>2025-10-15T07:19:50.362Z</time>
      </trkpt>
      <trkpt lat="43.84931" lon="4.24036">
        <ele>177.69</ele>
        <time>2025-10-15T07:19:53.981Z</time>
      </trkpt>
      <trkpt lat="43.84957" lon="4.24049">
        <ele>176.93</ele>
        <time>2025-10-15T07:19:57.609Z</time>
      </trkpt>
      <trkpt lat="43.84983" lon="4.24062">
        <ele>176.18</ele>
        <time>2025-10-15T07:20:01.246Z</time>
      </trkpt>
      <trkpt lat="43.84993" lon="4.2408">
        <ele>175.57</ele>
        <time>2025-10-15T07:20:04.889Z</time>
      </trkpt>
      <trkpt lat="43.85004" lon="4.24098">
        <ele>175.06</ele>
        <time>2025-10-15T07:20:08.538Z</time>
      </trkpt>
      <trkpt lat="43.85021" lon="4.24098">
        <ele>174.63</ele>
        <time>2025-10-15T07:20:12.192Z</time>
      </trkpt>
      <trkpt lat="43.85038" lon="4.24098">
        <ele>174.29</ele>
        <time>2025-10-15T07:20:15.852Z</time>
      </trkpt>
      <trkpt lat="43.85066" lon="4.24081">
        <ele>174.1</ele>
        <time>2025-10-15T07:20:19.522Z</time>
      </trkpt>
      <trkpt lat="43.85088" lon="4.24068">
        <ele>173.85</ele>
        <time>2025-10-15T07:20:23.200Z</time>
      </trkpt>
      <trkpt lat="43.85101" lon="4.24066">
        <ele>173.81</ele>
        <time>2025-10-15T07:20:26.883Z</time>
      </trkpt>
      <trkpt lat="43.85105" lon="4.24066">
        <ele>173.9</ele>
        <time>2025-10-15T07:20:30.567Z</time>
      </trkpt>
      <trkpt lat="43.85111" lon="4.24081">
        <ele>174.11</ele>
        <time>2025-10-15T07:20:34.255Z</time>
      </trkpt>
      <trkpt lat="43.85096" lon="4.24092">
        <ele>174.5</ele>
        <time>2025-10-15T07:20:37.949Z</time>
      </trkpt>
      <trkpt lat="43.85081" lon="4.24102">
        <ele>174.91</ele>
        <time>2025-10-15T07:20:41.648Z</time>
      </trkpt>
      <trkpt lat="43.85065" lon="4.24129">
        <ele>175.42</ele>
        <time>2025-10-15T07:20:45.356Z</time>
      </trkpt>
      <trkpt lat="43.85049" lon="4.24156">
        <ele>175.99</ele>
        <time>2025-10-15T07:20:49.072Z</time>
      </trkpt>
      <trkpt lat="43.85023" lon="4.24165">
        <ele>176.61</ele>
        <time>2025-10-15T07:20:52.797Z</time>
      </trkpt>
      <trkpt lat="43.85005" lon="4.24177">
        <ele>177.37</ele>
        <time>2025-10-15T07:20:56.529Z</time>
      </trkpt>
      <trkpt lat="43.84987" lon="4.2419">
        <ele>178.25</ele>
        <time>2025-10-15T07:21:00.268Z</time>
      </trkpt>
      <trkpt lat="43.84964" lon="4.24202">
        <ele>179.22</ele>
        <time>2025-10-15T07:21:04.015Z</time>
      </trkpt>
      <trkpt lat="43.84941" lon="4.24213">
        <ele>180.26</ele>
        <time>2025-10-15T07:21:07.770Z</time>
      </trkpt>
      <trkpt lat="43.84918" lon="4.24225">
        <ele>181.36</ele>
        <time>2025-10-15T07:21:11.533Z</time>
      </trkpt>
      <trkpt lat="43.8491" lon="4.24229">
        <ele>182.46</ele>
        <time>2025-10-15T07:21:15.299Z</time>
      </trkpt>
      <trkpt lat="43.84897" lon="4.24227">
        <ele>183.61</ele>
        <time>2025-10-15T07:21:19.069Z</time>
      </trkpt>
      <trkpt lat="43.84876" lon="4.24234">
        <ele>184.82</ele>
        <time>2025-10-15T07:21:22.846Z</time>
      </trkpt>
      <trkpt lat="43.84856" lon="4.24242">
        <ele>186.05</ele>
        <time>2025-10-15T07:21:26.631Z</time>
      </trkpt>
      <trkpt lat="43.84827" lon="4.24249">
        <ele>187.29</ele>
        <time>2025-10-15T07:21:30.425Z</time>
      </trkpt>
      <trkpt lat="43.84798" lon="4.24257">
        <ele>188.51</ele>
        <time>2025-10-15T07:21:34.229Z</time>
      </trkpt>
      <trkpt lat="43.84792" lon="4.24249">
        <ele>189.55</ele>
        <time>2025-10-15T07:21:38.036Z</time>
      </trkpt>
      <trkpt lat="43.84792" lon="4.24249">
        <ele>190.56</ele>
        <time>2025-10-15T07:21:41.843Z</time>
      </trkpt>
      <trkpt lat="43.84775" lon="4.24229">
        <ele>191.5</ele>
        <time>2025-10-15T07:21:45.657Z</time>
      </trkpt>
      <trkpt lat="43.84759" lon="4.2421">
        <ele>192.4</ele>
        <time>2025-10-15T07:21:49.478Z</time>
      </trkpt>
      <trkpt lat="43.8474" lon="4.24199">
        <ele>193.24</ele>
        <time>2025-10-15T07:21:53.306Z</time>
      </trkpt>
      <trkpt lat="43.84727" lon="4.24186">
        <ele>194.01</ele>
        <time>2025-10-15T07:21:57.140Z</time>
      </trkpt>
      <trkpt lat="43.84702" lon="4.24186">
        <ele>194.75</ele>
        <time>2025-10-15T07:22:00.982Z</time>
      </trkpt>
      <trkpt lat="43.84676" lon="4.24186">
        <ele>195.37</ele>
        <time>2025-10-15T07:22:04.833Z</time>
      </trkpt>
      <trkpt lat="43.8465" lon="4.24186">
        <ele>196.01</ele>
        <time>2025-10-15T07:22:08.692Z</time>
      </trkpt>
      <trkpt lat="43.84625" lon="4.2418">
        <ele>196.5</ele>
        <time>2025-10-15T07:22:12.560Z</time>
      </trkpt>
      <trkpt lat="43.84601" lon="4.24173">
        <ele>196.85</ele>
        <time>2025-10-15T07:22:16.436Z</time>
      </trkpt>
      <trkpt lat="43.84581" lon="4.24165">
        <ele>197.1</ele>
        <time>2025-10-15T07:22:20.319Z</time>
      </trkpt>
      <trkpt lat="43.84566" lon="4.24153">
        <ele>197.25</ele>
        <time>2025-10-15T07:22:24.208Z</time>
      </trkpt>
      <trkpt lat="43.84551" lon="4.24141">
        <ele>197.37</ele>
        <time>2025-10-15T07:22:28.102Z</time>
      </trkpt>
      <trkpt lat="43.84538" lon="4.24115">
        <ele>197.37</ele>
        <time>2025-10-15T07:22:32.004Z</time>
      </trkpt>
      <trkpt lat="43.84526" lon="4.24089">
        <ele>197.26</ele>
        <time>2025-10-15T07:22:35.913Z</time>
      </trkpt>
      <trkpt lat="43.84498" lon="4.24083">
        <ele>197.09</ele>
        <time>2025-10-15T07:22:39.832Z</time>
      </trkpt>
      <trkpt lat="43.8448" lon="4.24053">
        <ele>196.71</ele>
        <time>2025-10-15T07:22:43.760Z</time>
      </trkpt>
      <trkpt lat="43.84482" lon="4.24071">
        <ele>196.44</ele>
        <time>2025-10-15T07:22:47.692Z</time>
      </trkpt>
      <trkpt lat="43.84482" lon="4.24071">
        <ele>196.01</ele>
        <time>2025-10-15T07:22:51.624Z</time>
      </trkpt>
      <trkpt lat="43.8448" lon="4.24053">
        <ele>195.44</ele>
        <time>2025-10-15T07:22:55.561Z</time>
      </trkpt>
      <trkpt lat="43.84478" lon="4.24038">
        <ele>194.84</ele>
        <time>2025-10-15T07:22:59.502Z</time>
      </trkpt>
      <trkpt lat="43.84463" lon="4.24001">
        <ele>194.14</ele>
        <time>2025-10-15T07:23:03.453Z</time>
      </trkpt>
      <trkpt lat="43.84448" lon="4.23965">
        <ele>193.4</ele>
        <time>2025-10-15T07:23:07.414Z</time>
      </trkpt>
      <trkpt lat="43.84444" lon="4.23946">
        <ele>192.64</ele>
        <time>2025-10-15T07:23:11.380Z</time>
      </trkpt>
      <trkpt lat="43.84443" lon="4.23919">
        <ele>191.83</ele>
        <time>2025-10-15T07:23:15.352Z</time>
      </trkpt>
      <trkpt lat="43.84442" lon="4.23892">
        <ele>190.95</ele>
        <time>2025-10-15T07:23:19.331Z</time>
      </trkpt>
      <trkpt lat="43.84435" lon="4.23871">
        <ele>190.03</ele>
        <time>2025-10-15T07:23:23.315Z</time>
      </trkpt>
      <trkpt lat="43.84429" lon="4.23849">
        <ele>189.09</ele>
        <time>2025-10-15T07:23:27.305Z</time>
      </trkpt>
      <trkpt lat="43.84429" lon="4.23849">
        <ele>188.17</ele>
        <time>2025-10-15T07:23:31.295Z</time>
      </trkpt>
      <trkpt lat="43.8442" lon="4.23823">
        <ele>187.18</ele>
        <time>2025-10-15T07:23:35.292Z</time>
      </trkpt>
      <trkpt lat="43.84418" lon="4.23794">
        <ele>186.17</ele>
        <time>2025-10-15T07:23:39.296Z</time>
      </trkpt>
      <trkpt lat="43.84416" lon="4.23765">
        <ele>185.15</ele>
        <time>2025-10-15T07:23:43.307Z</time>
      </trkpt>
      <trkpt lat="43.84414" lon="4.23735">
        <ele>184.14</ele>
        <time>2025-10-15T07:23:47.325Z</time>
      </trkpt>
      <trkpt lat="43.84408" lon="4.2371">
        <ele>183.17</ele>
        <time>2025-10-15T07:23:51.350Z</time>
      </trkpt>
      <trkpt lat="43.8439" lon="4.23673">
        <ele>182.26</ele>
        <time>2025-10-15T07:23:55.385Z</time>
      </trkpt>
      <trkpt lat="43.84377" lon="4.23654">
        <ele>181.3</ele>
        <time>2025-10-15T07:23:59.426Z</time>
      </trkpt>
      <trkpt lat="43.84361" lon="4.23641">
        <ele>180.35</ele>
        <time>2025-10-15T07:24:03.474Z</time>
      </trkpt>
      <trkpt lat="43.84345" lon="4.23628">
        <ele>179.43</ele>
        <time>2025-10-15T07:24:07.528Z</time>
      </trkpt>
      <trkpt lat="43.84332" lon="4.23602">
        <ele>178.54</ele>
        <time>2025-10-15T07:24:11.589Z</time>
      </trkpt>
      <trkpt lat="43.84328" lon="4.23578">
        <ele>177.74</ele>
        <time>2025-10-15T07:24:15.656Z</time>
      </trkpt>
      <trkpt lat="43.84324" lon="4.23553">
        <ele>176.99</ele>
        <time>2025-10-15T07:24:19.730Z</time>
      </trkpt>
      <trkpt lat="43.84323" lon="4.23524">
        <ele>176.28</ele>
        <time>2025-10-15T07:24:23.811Z</time>
      </trkpt>
      <trkpt lat="43.84322" lon="4.23495">
        <ele>175.67</ele>
        <time>2025-10-15T07:24:27.899Z</time>
      </trkpt>
      <trkpt lat="43.84325" lon="4.23458">
        <ele>175.14</ele>
        <time>2025-10-15T07:24:31.995Z</time>
      </trkpt>
      <trkpt lat="43.84328" lon="4.23422">
        <ele>174.64</ele>
        <time>2025-10-15T07:24:36.100Z</time>
      </trkpt>
      <trkpt lat="43.84336" lon="4.23402">
        <ele>174.23</ele>
        <time>2025-10-15T07:24:40.211Z</time>
      </trkpt>
      <trkpt lat="43.84343" lon="4.23381">
        <ele>173.89</ele>
        <time>2025-10-15T07:24:44.327Z</time>
      </trkpt>
      <trkpt lat="43.84345" lon="4.23345">
        <ele>173.55</ele>
        <time>2025-10-15T07:24:48.452Z</time>
      </trkpt>
      <trkpt lat="43.84354" lon="4.23314">
        <ele>173.36</ele>
        <time>2025-10-15T07:24:52.585Z</time>
      </trkpt>
      <trkpt lat="43.84356" lon="4.23306">
        <ele>173.11</ele>
        <time>2025-10-15T07:24:56.720Z</time>
      </trkpt>
      <trkpt lat="43.84332" lon="4.2333">
        <ele>173.03</ele>
        <time>2025-10-15T07:25:00.865Z</time>
      </trkpt>
      <trkpt lat="43.84324" lon="4.23332">
        <ele>173.07</ele>
        <time>2025-10-15T07:25:05.013Z</time>
      </trkpt>
      <trkpt lat="43.84308" lon="4.23321">
        <ele>173.18</ele>
        <time>2025-10-15T07:25:09.167Z</time>
      </trkpt>
      <trkpt lat="43.84292" lon="4.23311">
        <ele>173.36</ele>
        <time>2025-10-15T07:25:13.327Z</time>
      </trkpt>
      <trkpt lat="43.84287" lon="4.233">
        <ele>173.61</ele>
        <time>2025-10-15T07:25:17.490Z</time>
      </trkpt>
      <trkpt lat="43.84285" lon="4.23257">
        <ele>173.94</ele>
        <time>2025-10-15T07:25:21.663Z</time>
      </trkpt>
      <trkpt lat="43.84269" lon="4.23234">
        <ele>174.36</ele>
        <time>2025-10-15T07:25:25.844Z</time>
      </trkpt>
      <trkpt lat="43.84264" lon="4.23227">
        <ele>175.35</ele>
        <time>2025-10-15T07:25:30.027Z</time>
      </trkpt>
      <trkpt lat="43.84257" lon="4.23205">
        <ele>175.93</ele>
        <time>2025-10-15T07:25:34.216Z</time>
      </trkpt>
      <trkpt lat="43.84251" lon="4.23205">
        <ele>176.61</ele>
        <time>2025-10-15T07:25:38.407Z</time>
      </trkpt>
      <trkpt lat="43.84232" lon="4.23208">
        <ele>177.36</ele>
        <time>2025-10-15T07:25:42.604Z</time>
      </trkpt>
      <trkpt lat="43.84217" lon="4.23197">
        <ele>178.16</ele>
        <time>2025-10-15T07:25:46.807Z</time>
      </trkpt>
      <trkpt lat="43.84202" lon="4.23186">
        <ele>179.01</ele>
        <time>2025-10-15T07:25:51.016Z</time>
      </trkpt>
      <trkpt lat="43.84187" lon="4.2316">
        <ele>179.88</ele>
        <time>2025-10-15T07:25:55.233Z</time>
      </trkpt>
      <trkpt lat="43.8418" lon="4.23137">
        <ele>180.82</ele>
        <time>2025-10-15T07:25:59.456Z</time>
      </trkpt>
      <trkpt lat="43.84165" lon="4.23107">
        <ele>181.9</ele>
        <time>2025-10-15T07:26:03.688Z</time>
      </trkpt>
      <trkpt lat="43.84161" lon="4.23072">
        <ele>182.97</ele>
        <time>2025-10-15T07:26:07.928Z</time>
      </trkpt>
      <trkpt lat="43.84154" lon="4.23064">
        <ele>184.01</ele>
        <time>2025-10-15T07:26:12.171Z</time>
      </trkpt>
      <trkpt lat="43.8415" lon="4.23038">
        <ele>185.08</ele>
        <time>2025-10-15T07:26:16.420Z</time>
      </trkpt>
      <trkpt lat="43.84141" lon="4.23029">
        <ele>186.13</ele>
        <time>2025-10-15T07:26:20.673Z</time>
      </trkpt>
      <trkpt lat="43.84137" lon="4.23014">
        <ele>187.15</ele>
        <time>2025-10-15T07:26:24.930Z</time>
      </trkpt>
      <trkpt lat="43.84122" lon="4.22999">
        <ele>188.18</ele>
        <time>2025-10-15T07:26:29.193Z</time>
      </trkpt>
      <trkpt lat="43.84111" lon="4.22997">
        <ele>189.21</ele>
        <time>2025-10-15T07:26:33.460Z</time>
      </trkpt>
      <trkpt lat="43.84094" lon="4.2298">
        <ele>190.19</ele>
        <time>2025-10-15T07:26:37.734Z</time>
      </trkpt>
      <trkpt lat="43.84075" lon="4.22999">
        <ele>191.27</ele>
        <time>2025-10-15T07:26:42.016Z</time>
      </trkpt>
      <trkpt lat="43.84064" lon="4.23025">
        <ele>192.26</ele>
        <time>2025-10-15T07:26:46.305Z</time>
      </trkpt>
      <trkpt lat="43.84053" lon="4.23042">
        <ele>193.2</ele>
        <time>2025-10-15T07:26:50.599Z</time>
      </trkpt>
      <trkpt lat="43.84026" lon="4.23055">
        <ele>194.1</ele>
        <time>2025-10-15T07:26:54.903Z</time>
      </trkpt>
      <trkpt lat="43.84005" lon="4.23046">
        <ele>194.88</ele>
        <time>2025-10-15T07:26:59.214Z</time>
      </trkpt>
      <trkpt lat="43.83985" lon="4.23036">
        <ele>195.57</ele>
        <time>2025-10-15T07:27:03.532Z</time>
      </trkpt>
      <trkpt lat="43.83976" lon="4.23025">
        <ele>196.2</ele>
        <time>2025-10-15T07:27:07.854Z</time>
      </trkpt>
      <trkpt lat="43.83961" lon="4.23021">
        <ele>196.81</ele>
        <time>2025-10-15T07:27:12.181Z</time>
      </trkpt>
      <trkpt lat="43.83955" lon="4.23023">
        <ele>197.32</ele>
        <time>2025-10-15T07:27:16.511Z</time>
      </trkpt>
      <trkpt lat="43.83948" lon="4.23017">
        <ele>197.74</ele>
        <time>2025-10-15T07:27:20.843Z</time>
      </trkpt>
      <trkpt lat="43.83938" lon="4.23012">
        <ele>198.11</ele>
        <time>2025-10-15T07:27:25.179Z</time>
      </trkpt>
      <trkpt lat="43.83923" lon="4.23014">
        <ele>198.43</ele>
        <time>2025-10-15T07:27:29.520Z</time>
      </trkpt>
      <trkpt lat="43.83922" lon="4.2301">
        <ele>198.62</ele>
        <time>2025-10-15T07:27:33.862Z</time>
      </trkpt>
      <trkpt lat="43.83922" lon="4.2301">
        <ele>198.76</ele>
        <time>2025-10-15T07:27:38.204Z</time>
      </trkpt>
      <trkpt lat="43.83917" lon="4.2298">
        <ele>198.73</ele>
        <time>2025-10-15T07:27:42.554Z</time>
      </trkpt>
      <trkpt lat="43.83912" lon="4.2295">
        <ele>198.58</ele>
        <time>2025-10-15T07:27:46.911Z</time>
      </trkpt>
      <trkpt lat="43.83908" lon="4.2292">
        <ele>198.47</ele>
        <time>2025-10-15T07:27:51.275Z</time>
      </trkpt>
      <trkpt lat="43.83903" lon="4.22877">
        <ele>198.34</ele>
        <time>2025-10-15T07:27:55.650Z</time>
      </trkpt>
      <trkpt lat="43.83908" lon="4.22848">
        <ele>198.26</ele>
        <time>2025-10-15T07:28:00.032Z</time>
      </trkpt>
      <trkpt lat="43.83912" lon="4.22819">
        <ele>198.17</ele>
        <time>2025-10-15T07:28:04.421Z</time>
      </trkpt>
      <trkpt lat="43.83923" lon="4.22811">
        <ele>198.05</ele>
        <time>2025-10-15T07:28:08.814Z</time>
      </trkpt>
      <trkpt lat="43.83926" lon="4.22774">
        <ele>197.92</ele>
        <time>2025-10-15T07:28:13.216Z</time>
      </trkpt>
      <trkpt lat="43.83929" lon="4.22737">
        <ele>197.82</ele>
        <time>2025-10-15T07:28:17.627Z</time>
      </trkpt>
      <trkpt lat="43.83933" lon="4.22701">
        <ele>197.71</ele>
        <time>2025-10-15T07:28:22.047Z</time>
      </trkpt>
      <trkpt lat="43.83936" lon="4.22665">
        <ele>197.52</ele>
        <time>2025-10-15T07:28:26.476Z</time>
      </trkpt>
      <trkpt lat="43.83936" lon="4.22665">
        <ele>197.28</ele>
        <time>2025-10-15T07:28:30.905Z</time>
      </trkpt>
      <trkpt lat="43.83938" lon="4.22652">
        <ele>197</ele>
        <time>2025-10-15T07:28:35.337Z</time>
      </trkpt>
      <trkpt lat="43.83938" lon="4.22645">
        <ele>196.68</ele>
        <time>2025-10-15T07:28:39.770Z</time>
      </trkpt>
      <trkpt lat="43.83919" lon="4.22626">
        <ele>196.34</ele>
        <time>2025-10-15T07:28:44.211Z</time>
      </trkpt>
      <trkpt lat="43.83901" lon="4.22607">
        <ele>195.93</ele>
        <time>2025-10-15T07:28:48.660Z</time>
      </trkpt>
      <trkpt lat="43.8388" lon="4.226">
        <ele>195.46</ele>
        <time>2025-10-15T07:28:53.116Z</time>
      </trkpt>
      <trkpt lat="43.8386" lon="4.2259">
        <ele>194.9</ele>
        <time>2025-10-15T07:28:57.579Z</time>
      </trkpt>
      <trkpt lat="43.83841" lon="4.22579">
        <ele>194.26</ele>
        <time>2025-10-15T07:29:02.049Z</time>
      </trkpt>
      <trkpt lat="43.83828" lon="4.22564">
        <ele>193.51</ele>
        <time>2025-10-15T07:29:06.524Z</time>
      </trkpt>
      <trkpt lat="43.83824" lon="4.22538">
        <ele>192.73</ele>
        <time>2025-10-15T07:29:11.006Z</time>
      </trkpt>
      <trkpt lat="43.83828" lon="4.22501">
        <ele>191.95</ele>
        <time>2025-10-15T07:29:15.497Z</time>
      </trkpt>
      <trkpt lat="43.83832" lon="4.22465">
        <ele>191.12</ele>
        <time>2025-10-15T07:29:19.997Z</time>
      </trkpt>
      <trkpt lat="43.8382" lon="4.22467">
        <ele>190.1</ele>
        <time>2025-10-15T07:29:24.501Z</time>
      </trkpt>
      <trkpt lat="43.83809" lon="4.22459">
        <ele>188.98</ele>
        <time>2025-10-15T07:29:29.009Z</time>
      </trkpt>
      <trkpt lat="43.83785" lon="4.22431">
        <ele>187.62</ele>
        <time>2025-10-15T07:29:33.527Z</time>
      </trkpt>
      <trkpt lat="43.83778" lon="4.22396">
        <ele>186.38</ele>
        <time>2025-10-15T07:29:38.054Z</time>
      </trkpt>
      <trkpt lat="43.83771" lon="4.22362">
        <ele>185.05</ele>
        <time>2025-10-15T07:29:42.590Z</time>
      </trkpt>
      <trkpt lat="43.83764" lon="4.22328">
        <ele>183.7</ele>
        <time>2025-10-15T07:29:47.134Z</time>
      </trkpt>
      <trkpt lat="43.83757" lon="4.22293">
        <ele>182.29</ele>
        <time>2025-10-15T07:29:51.687Z</time>
      </trkpt>
      <trkpt lat="43.83755" lon="4.22287">
        <ele>180.84</ele>
        <time>2025-10-15T07:29:56.242Z</time>
      </trkpt>
      <trkpt lat="43.8374" lon="4.22276">
        <ele>179.18</ele>
        <time>2025-10-15T07:30:00.802Z</time>
      </trkpt>
      <trkpt lat="43.83725" lon="4.22266">
        <ele>177.5</ele>
        <time>2025-10-15T07:30:05.368Z</time>
      </trkpt>
      <trkpt lat="43.83708" lon="4.22259">
        <ele>175.77</ele>
        <time>2025-10-15T07:30:09.940Z</time>
      </trkpt>
      <trkpt lat="43.83704" lon="4.22261">
        <ele>174.12</ele>
        <time>2025-10-15T07:30:14.513Z</time>
      </trkpt>
      <trkpt lat="43.83691" lon="4.22268">
        <ele>172.36</ele>
        <time>2025-10-15T07:30:19.091Z</time>
      </trkpt>
      <trkpt lat="43.83682" lon="4.22268">
        <ele>170.65</ele>
        <time>2025-10-15T07:30:23.672Z</time>
      </trkpt>
      <trkpt lat="43.83676" lon="4.22274">
        <ele>168.96</ele>
        <time>2025-10-15T07:30:28.255Z</time>
      </trkpt>
      <trkpt lat="43.83676" lon="4.22274">
        <ele>165.73</ele>
        <time>2025-10-15T07:30:32.838Z</time>
      </trkpt>
      <trkpt lat="43.83672" lon="4.22306">
        <ele>164.07</ele>
        <time>2025-10-15T07:30:37.429Z</time>
      </trkpt>
      <trkpt lat="43.83665" lon="4.22345">
        <ele>162.35</ele>
        <time>2025-10-15T07:30:42.030Z</time>
      </trkpt>
      <trkpt lat="43.83658" lon="4.22385">
        <ele>160.67</ele>
        <time>2025-10-15T07:30:46.641Z</time>
      </trkpt>
      <trkpt lat="43.83651" lon="4.22424">
        <ele>159.06</ele>
        <time>2025-10-15T07:30:51.261Z</time>
      </trkpt>
      <trkpt lat="43.83644" lon="4.22463">
        <ele>157.57</ele>
        <time>2025-10-15T07:30:55.891Z</time>
      </trkpt>
      <trkpt lat="43.83637" lon="4.22502">
        <ele>156.08</ele>
        <time>2025-10-15T07:31:00.531Z</time>
      </trkpt>
      <trkpt lat="43.83633" lon="4.22512">
        <ele>154.69</ele>
        <time>2025-10-15T07:31:05.174Z</time>
      </trkpt>
      <trkpt lat="43.83631" lon="4.22555">
        <ele>153.37</ele>
        <time>2025-10-15T07:31:09.827Z</time>
      </trkpt>
      <trkpt lat="43.83625" lon="4.22577">
        <ele>152.11</ele>
        <time>2025-10-15T07:31:14.486Z</time>
      </trkpt>
      <trkpt lat="43.8362" lon="4.22598">
        <ele>150.98</ele>
        <time>2025-10-15T07:31:19.150Z</time>
      </trkpt>
      <trkpt lat="43.83616" lon="4.22637">
        <ele>149.9</ele>
        <time>2025-10-15T07:31:23.824Z</time>
      </trkpt>
      <trkpt lat="43.83611" lon="4.22675">
        <ele>148.86</ele>
        <time>2025-10-15T07:31:28.507Z</time>
      </trkpt>
      <trkpt lat="43.83605" lon="4.22697">
        <ele>147.95</ele>
        <time>2025-10-15T07:31:33.196Z</time>
      </trkpt>
      <trkpt lat="43.83602" lon="4.2272">
        <ele>147.11</ele>
        <time>2025-10-15T07:31:37.890Z</time>
      </trkpt>
      <trkpt lat="43.83599" lon="4.22744">
        <ele>146.3</ele>
        <time>2025-10-15T07:31:42.590Z</time>
      </trkpt>
      <trkpt lat="43.83592" lon="4.22753">
        <ele>144.34</ele>
        <time>2025-10-15T07:31:47.293Z</time>
      </trkpt>
      <trkpt lat="43.83586" lon="4.22746">
        <ele>144.02</ele>
        <time>2025-10-15T07:31:51.999Z</time>
      </trkpt>
      <trkpt lat="43.83584" lon="4.22729">
        <ele>143.89</ele>
        <time>2025-10-15T07:31:56.709Z</time>
      </trkpt>
      <trkpt lat="43.83588" lon="4.227">
        <ele>143.93</ele>
        <time>2025-10-15T07:32:01.426Z</time>
      </trkpt>
      <trkpt lat="43.83592" lon="4.22672">
        <ele>143.97</ele>
        <time>2025-10-15T07:32:06.150Z</time>
      </trkpt>
      <trkpt lat="43.83596" lon="4.22643">
        <ele>143.95</ele>
        <time>2025-10-15T07:32:10.881Z</time>
      </trkpt>
      <trkpt lat="43.83597" lon="4.22609">
        <ele>143.89</ele>
        <time>2025-10-15T07:32:15.620Z</time>
      </trkpt>
      <trkpt lat="43.83599" lon="4.22575">
        <ele>143.97</ele>
        <time>2025-10-15T07:32:20.368Z</time>
      </trkpt>
      <trkpt lat="43.83596" lon="4.22553">
        <ele>143.94</ele>
        <time>2025-10-15T07:32:25.121Z</time>
      </trkpt>
      <trkpt lat="43.83597" lon="4.22544">
        <ele>144.08</ele>
        <time>2025-10-15T07:32:29.876Z</time>
      </trkpt>
      <trkpt lat="43.83599" lon="4.22523">
        <ele>144.6</ele>
        <time>2025-10-15T07:32:34.636Z</time>
      </trkpt>
      <trkpt lat="43.83592" lon="4.22499">
        <ele>144.57</ele>
        <time>2025-10-15T07:32:39.402Z</time>
      </trkpt>
      <trkpt lat="43.8359" lon="4.2248">
        <ele>144.65</ele>
        <time>2025-10-15T07:32:44.173Z</time>
      </trkpt>
      <trkpt lat="43.83593" lon="4.22454">
        <ele>144.87</ele>
        <time>2025-10-15T07:32:48.950Z</time>
      </trkpt>
      <trkpt lat="43.83596" lon="4.22429">
        <ele>145.03</ele>
        <time>2025-10-15T07:32:53.734Z</time>
      </trkpt>
      <trkpt lat="43.83605" lon="4.22401">
        <ele>145.25</ele>
        <time>2025-10-15T07:32:58.525Z</time>
      </trkpt>
      <trkpt lat="43.83607" lon="4.22377">
        <ele>145.47</ele>
        <time>2025-10-15T07:33:03.322Z</time>
      </trkpt>
      <trkpt lat="43.83609" lon="4.22354">
        <ele>145.69</ele>
        <time>2025-10-15T07:33:08.124Z</time>
      </trkpt>
      <trkpt lat="43.83615" lon="4.22331">
        <ele>145.93</ele>
        <time>2025-10-15T07:33:12.932Z</time>
      </trkpt>
      <trkpt lat="43.8362" lon="4.22308">
        <ele>146.07</ele>
        <time>2025-10-15T07:33:17.746Z</time>
      </trkpt>
      <trkpt lat="43.83616" lon="4.22291">
        <ele>145.86</ele>
        <time>2025-10-15T07:33:22.564Z</time>
      </trkpt>
      <trkpt lat="43.83611" lon="4.22251">
        <ele>145.5</ele>
        <time>2025-10-15T07:33:27.392Z</time>
      </trkpt>
      <trkpt lat="43.83615" lon="4.22228">
        <ele>145.4</ele>
        <time>2025-10-15T07:33:32.226Z</time>
      </trkpt>
      <trkpt lat="43.83618" lon="4.22205">
        <ele>145.18</ele>
        <time>2025-10-15T07:33:37.065Z</time>
      </trkpt>
      <trkpt lat="43.83618" lon="4.2219">
        <ele>144.82</ele>
        <time>2025-10-15T07:33:41.908Z</time>
      </trkpt>
      <trkpt lat="43.83618" lon="4.22173">
        <ele>143.85</ele>
        <time>2025-10-15T07:33:46.755Z</time>
      </trkpt>
      <trkpt lat="43.83622" lon="4.22163">
        <ele>143.33</ele>
        <time>2025-10-15T07:33:51.605Z</time>
      </trkpt>
      <trkpt lat="43.83629" lon="4.22122">
        <ele>142.61</ele>
        <time>2025-10-15T07:33:56.465Z</time>
      </trkpt>
      <trkpt lat="43.83629" lon="4.221">
        <ele>141.67</ele>
        <time>2025-10-15T07:34:01.330Z</time>
      </trkpt>
      <trkpt lat="43.83618" lon="4.22132">
        <ele>140.78</ele>
        <time>2025-10-15T07:34:06.204Z</time>
      </trkpt>
      <trkpt lat="43.83609" lon="4.22158">
        <ele>138.55</ele>
        <time>2025-10-15T07:34:11.085Z</time>
      </trkpt>
      <trkpt lat="43.83601" lon="4.22184">
        <ele>137.22</ele>
        <time>2025-10-15T07:34:15.972Z</time>
      </trkpt>
      <trkpt lat="43.83594" lon="4.2222">
        <ele>135.87</ele>
        <time>2025-10-15T07:34:20.868Z</time>
      </trkpt>
      <trkpt lat="43.83588" lon="4.22235">
        <ele>134.36</ele>
        <time>2025-10-15T07:34:25.769Z</time>
      </trkpt>
      <trkpt lat="43.83588" lon="4.22238">
        <ele>132.98</ele>
        <time>2025-10-15T07:34:30.670Z</time>
      </trkpt>
      <trkpt lat="43.83579" lon="4.22244">
        <ele>131.34</ele>
        <time>2025-10-15T07:34:35.574Z</time>
      </trkpt>
      <trkpt lat="43.83576" lon="4.2227">
        <ele>129.82</ele>
        <time>2025-10-15T07:34:40.485Z</time>
      </trkpt>
      <trkpt lat="43.83573" lon="4.22296">
        <ele>128.3</ele>
        <time>2025-10-15T07:34:45.402Z</time>
      </trkpt>
      <trkpt lat="43.83562" lon="4.22323">
        <ele>126.56</ele>
        <time>2025-10-15T07:34:50.327Z</time>
      </trkpt>
      <trkpt lat="43.83553" lon="4.22357">
        <ele>124.93</ele>
        <time>2025-10-15T07:34:55.260Z</time>
      </trkpt>
      <trkpt lat="43.83545" lon="4.2239">
        <ele>123.28</ele>
        <time>2025-10-15T07:35:00.202Z</time>
      </trkpt>
      <trkpt lat="43.83532" lon="4.2242">
        <ele>121.42</ele>
        <time>2025-10-15T07:35:05.152Z</time>
      </trkpt>
      <trkpt lat="43.83526" lon="4.22447">
        <ele>119.69</ele>
        <time>2025-10-15T07:35:10.109Z</time>
      </trkpt>
      <trkpt lat="43.83519" lon="4.22474">
        <ele>117.95</ele>
        <time>2025-10-15T07:35:15.073Z</time>
      </trkpt>
      <trkpt lat="43.83513" lon="4.22512">
        <ele>116.26</ele>
        <time>2025-10-15T07:35:20.046Z</time>
      </trkpt>
      <trkpt lat="43.83511" lon="4.22548">
        <ele>114.56</ele>
        <time>2025-10-15T07:35:25.028Z</time>
      </trkpt>
      <trkpt lat="43.83508" lon="4.22583">
        <ele>112.83</ele>
        <time>2025-10-15T07:35:30.019Z</time>
      </trkpt>
      <trkpt lat="43.83507" lon="4.22592">
        <ele>111.11</ele>
        <time>2025-10-15T07:35:35.012Z</time>
      </trkpt>
      <trkpt lat="43.83504" lon="4.22613">
        <ele>107.64</ele>
        <time>2025-10-15T07:35:40.010Z</time>
      </trkpt>
      <trkpt lat="43.83478" lon="4.22637">
        <ele>105.62</ele>
        <time>2025-10-15T07:35:45.018Z</time>
      </trkpt>
      <trkpt lat="43.83456" lon="4.22642">
        <ele>103.56</ele>
        <time>2025-10-15T07:35:50.034Z</time>
      </trkpt>
      <trkpt lat="43.83434" lon="4.22648">
        <ele>101.64</ele>
        <time>2025-10-15T07:35:55.057Z</time>
      </trkpt>
      <trkpt lat="43.83412" lon="4.22654">
        <ele>99.73</ele>
        <time>2025-10-15T07:36:00.088Z</time>
      </trkpt>
      <trkpt lat="43.83412" lon="4.22654">
        <ele>98.05</ele>
        <time>2025-10-15T07:36:05.119Z</time>
      </trkpt>
      <trkpt lat="43.83387" lon="4.22659">
        <ele>96.18</ele>
        <time>2025-10-15T07:36:10.158Z</time>
      </trkpt>
      <trkpt lat="43.83363" lon="4.22665">
        <ele>94.54</ele>
        <time>2025-10-15T07:36:15.205Z</time>
      </trkpt>
      <trkpt lat="43.83333" lon="4.22659">
        <ele>92.94</ele>
        <time>2025-10-15T07:36:20.263Z</time>
      </trkpt>
      <trkpt lat="43.83303" lon="4.22653">
        <ele>91.39</ele>
        <time>2025-10-15T07:36:25.331Z</time>
      </trkpt>
      <trkpt lat="43.83272" lon="4.22647">
        <ele>89.86</ele>
        <time>2025-10-15T07:36:30.409Z</time>
      </trkpt>
      <trkpt lat="43.83257" lon="4.22637">
        <ele>88.38</ele>
        <time>2025-10-15T07:36:35.492Z</time>
      </trkpt>
      <trkpt lat="43.83251" lon="4.22632">
        <ele>85.63</ele>
        <time>2025-10-15T07:36:40.578Z</time>
      </trkpt>
      <trkpt lat="43.83251" lon="4.22632">
        <ele>84.34</ele>
        <time>2025-10-15T07:36:45.664Z</time>
      </trkpt>
      <trkpt lat="43.83247" lon="4.22611">
        <ele>83</ele>
        <time>2025-10-15T07:36:50.755Z</time>
      </trkpt>
      <trkpt lat="43.83227" lon="4.22587">
        <ele>81.68</ele>
        <time>2025-10-15T07:36:55.855Z</time>
      </trkpt>
      <trkpt lat="43.83207" lon="4.22576">
        <ele>80.48</ele>
        <time>2025-10-15T07:37:00.962Z</time>
      </trkpt>
      <trkpt lat="43.83187" lon="4.22564">
        <ele>79.28</ele>
        <time>2025-10-15T07:37:06.076Z</time>
      </trkpt>
      <trkpt lat="43.83161" lon="4.22542">
        <ele>78.14</ele>
        <time>2025-10-15T07:37:11.200Z</time>
      </trkpt>
      <trkpt lat="43.83135" lon="4.22521">
        <ele>77.06</ele>
        <time>2025-10-15T07:37:16.335Z</time>
      </trkpt>
      <trkpt lat="43.83111" lon="4.22514">
        <ele>76.02</ele>
        <time>2025-10-15T07:37:21.478Z</time>
      </trkpt>
      <trkpt lat="43.83081" lon="4.22517">
        <ele>75</ele>
        <time>2025-10-15T07:37:26.631Z</time>
      </trkpt>
      <trkpt lat="43.83051" lon="4.22519">
        <ele>74.08</ele>
        <time>2025-10-15T07:37:31.794Z</time>
      </trkpt>
      <trkpt lat="43.8303" lon="4.22517">
        <ele>73.23</ele>
        <time>2025-10-15T07:37:36.964Z</time>
      </trkpt>
      <trkpt lat="43.8301" lon="4.22503">
        <ele>72.44</ele>
        <time>2025-10-15T07:37:42.141Z</time>
      </trkpt>
      <trkpt lat="43.82989" lon="4.22489">
        <ele>71.71</ele>
        <time>2025-10-15T07:37:47.326Z</time>
      </trkpt>
      <trkpt lat="43.82964" lon="4.22468">
        <ele>71</ele>
        <time>2025-10-15T07:37:52.521Z</time>
      </trkpt>
      <trkpt lat="43.82939" lon="4.22447">
        <ele>70.33</ele>
        <time>2025-10-15T07:37:57.725Z</time>
      </trkpt>
      <trkpt lat="43.82914" lon="4.22426">
        <ele>69.78</ele>
        <time>2025-10-15T07:38:02.939Z</time>
      </trkpt>
      <trkpt lat="43.82901" lon="4.22422">
        <ele>69.36</ele>
        <time>2025-10-15T07:38:08.158Z</time>
      </trkpt>
      <trkpt lat="43.82885" lon="4.22429">
        <ele>68.97</ele>
        <time>2025-10-15T07:38:13.382Z</time>
      </trkpt>
      <trkpt lat="43.82869" lon="4.22435">
        <ele>68.63</ele>
        <time>2025-10-15T07:38:18.612Z</time>
      </trkpt>
      <trkpt lat="43.82856" lon="4.22437">
        <ele>68.37</ele>
        <time>2025-10-15T07:38:23.846Z</time>
      </trkpt>
      <trkpt lat="43.82852" lon="4.22431">
        <ele>68.17</ele>
        <time>2025-10-15T07:38:29.082Z</time>
      </trkpt>
      <trkpt lat="43.8285" lon="4.22422">
        <ele>68.04</ele>
        <time>2025-10-15T07:38:34.320Z</time>
      </trkpt>
      <trkpt lat="43.82839" lon="4.22402">
        <ele>67.9</ele>
        <time>2025-10-15T07:38:39.564Z</time>
      </trkpt>
      <trkpt lat="43.82816" lon="4.22404">
        <ele>67.93</ele>
        <time>2025-10-15T07:38:44.816Z</time>
      </trkpt>
      <trkpt lat="43.82793" lon="4.22406">
        <ele>68.03</ele>
        <time>2025-10-15T07:38:50.076Z</time>
      </trkpt>
      <trkpt lat="43.8277" lon="4.22408">
        <ele>68.14</ele>
        <time>2025-10-15T07:38:55.344Z</time>
      </trkpt>
      <trkpt lat="43.82772" lon="4.22407">
        <ele>68.21</ele>
        <time>2025-10-15T07:39:00.612Z</time>
      </trkpt>
      <trkpt lat="43.8277" lon="4.22401">
        <ele>68.3</ele>
        <time>2025-10-15T07:39:05.882Z</time>
      </trkpt>
      <trkpt lat="43.82763" lon="4.2236">
        <ele>68.37</ele>
        <time>2025-10-15T07:39:11.162Z</time>
      </trkpt>
      <trkpt lat="43.82755" lon="4.22319">
        <ele>68.36</ele>
        <time>2025-10-15T07:39:16.452Z</time>
      </trkpt>
      <trkpt lat="43.82749" lon="4.22286">
        <ele>68.38</ele>
        <time>2025-10-15T07:39:21.751Z</time>
      </trkpt>
      <trkpt lat="43.82743" lon="4.22253">
        <ele>68.33</ele>
        <time>2025-10-15T07:39:27.058Z</time>
      </trkpt>
      <trkpt lat="43.82738" lon="4.22219">
        <ele>68.36</ele>
        <time>2025-10-15T07:39:32.373Z</time>
      </trkpt>
      <trkpt lat="43.82732" lon="4.22186">
        <ele>68.32</ele>
        <time>2025-10-15T07:39:37.696Z</time>
      </trkpt>
      <trkpt lat="43.82732" lon="4.22186">
        <ele>68.24</ele>
        <time>2025-10-15T07:39:43.019Z</time>
      </trkpt>
      <trkpt lat="43.82723" lon="4.22155">
        <ele>68.16</ele>
        <time>2025-10-15T07:39:48.350Z</time>
      </trkpt>
      <trkpt lat="43.82715" lon="4.22125">
        <ele>68.01</ele>
        <time>2025-10-15T07:39:53.689Z</time>
      </trkpt>
      <trkpt lat="43.82715" lon="4.22125">
        <ele>67.78</ele>
        <time>2025-10-15T07:39:59.028Z</time>
      </trkpt>
      <trkpt lat="43.82712" lon="4.22115">
        <ele>67.52</ele>
        <time>2025-10-15T07:40:04.370Z</time>
      </trkpt>
      <trkpt lat="43.8271" lon="4.22109">
        <ele>67.2</ele>
        <time>2025-10-15T07:40:09.713Z</time>
      </trkpt>
      <trkpt lat="43.82682" lon="4.22126">
        <ele>66.72</ele>
        <time>2025-10-15T07:40:15.066Z</time>
      </trkpt>
      <trkpt lat="43.82654" lon="4.22143">
        <ele>66.15</ele>
        <time>2025-10-15T07:40:20.430Z</time>
      </trkpt>
      <trkpt lat="43.82637" lon="4.22158">
        <ele>65.66</ele>
        <time>2025-10-15T07:40:25.800Z</time>
      </trkpt>
      <trkpt lat="43.82637" lon="4.22158">
        <ele>65.14</ele>
        <time>2025-10-15T07:40:31.170Z</time>
      </trkpt>
      <trkpt lat="43.82616" lon="4.22178">
        <ele>64.56</ele>
        <time>2025-10-15T07:40:36.549Z</time>
      </trkpt>
      <trkpt lat="43.82592" lon="4.22188">
        <ele>63.91</ele>
        <time>2025-10-15T07:40:41.936Z</time>
      </trkpt>
      <trkpt lat="43.82569" lon="4.22198">
        <ele>63.22</ele>
        <time>2025-10-15T07:40:47.331Z</time>
      </trkpt>
      <trkpt lat="43.82545" lon="4.22208">
        <ele>62.49</ele>
        <time>2025-10-15T07:40:52.735Z</time>
      </trkpt>
      <trkpt lat="43.82529" lon="4.22212">
        <ele>61.8</ele>
        <time>2025-10-15T07:40:58.144Z</time>
      </trkpt>
      <trkpt lat="43.82513" lon="4.22216">
        <ele>61.09</ele>
        <time>2025-10-15T07:41:03.559Z</time>
      </trkpt>
      <trkpt lat="43.82493" lon="4.22216">
        <ele>60.34</ele>
        <time>2025-10-15T07:41:08.980Z</time>
      </trkpt>
      <trkpt lat="43.82478" lon="4.22205">
        <ele>59.67</ele>
        <time>2025-10-15T07:41:14.407Z</time>
      </trkpt>
      <trkpt lat="43.82466" lon="4.22182">
        <ele>59.1</ele>
        <time>2025-10-15T07:41:19.841Z</time>
      </trkpt>
      <trkpt lat="43.82463" lon="4.22184">
        <ele>58.53</ele>
        <time>2025-10-15T07:41:25.276Z</time>
      </trkpt>
      <trkpt lat="43.82461" lon="4.22184">
        <ele>57.99</ele>
        <time>2025-10-15T07:41:30.711Z</time>
      </trkpt>
      <trkpt lat="43.82459" lon="4.22184">
        <ele>57.02</ele>
        <time>2025-10-15T07:41:36.147Z</time>
      </trkpt>
      <trkpt lat="43.82457" lon="4.22186">
        <ele>56.59</ele>
        <time>2025-10-15T07:41:41.584Z</time>
      </trkpt>
      <trkpt lat="43.82453" lon="4.22178">
        <ele>56.2</ele>
        <time>2025-10-15T07:41:47.023Z</time>
      </trkpt>
      <trkpt lat="43.82442" lon="4.22182">
        <ele>55.86</ele>
        <time>2025-10-15T07:41:52.466Z</time>
      </trkpt>
      <trkpt lat="43.82442" lon="4.22178">
        <ele>55.57</ele>
        <time>2025-10-15T07:41:57.910Z</time>
      </trkpt>
      <trkpt lat="43.8244" lon="4.22171">
        <ele>55.32</ele>
        <time>2025-10-15T07:42:03.356Z</time>
      </trkpt>
      <trkpt lat="43.82448" lon="4.22165">
        <ele>55.12</ele>
        <time>2025-10-15T07:42:08.805Z</time>
      </trkpt>
      <trkpt lat="43.82455" lon="4.2215">
        <ele>54.98</ele>
        <time>2025-10-15T07:42:14.258Z</time>
      </trkpt>
      <trkpt lat="43.82455" lon="4.22115">
        <ele>54.89</ele>
        <time>2025-10-15T07:42:19.720Z</time>
      </trkpt>
      <trkpt lat="43.82455" lon="4.22081">
        <ele>54.84</ele>
        <time>2025-10-15T07:42:25.190Z</time>
      </trkpt>
      <trkpt lat="43.82448" lon="4.22052">
        <ele>54.84</ele>
        <time>2025-10-15T07:42:30.667Z</time>
      </trkpt>
      <trkpt lat="43.82442" lon="4.22023">
        <ele>54.89</ele>
        <time>2025-10-15T07:42:36.152Z</time>
      </trkpt>
      <trkpt lat="43.82438" lon="4.2201">
        <ele>55.03</ele>
        <time>2025-10-15T07:42:41.640Z</time>
      </trkpt>
      <trkpt lat="43.82427" lon="4.21999">
        <ele>55.2</ele>
        <time>2025-10-15T07:42:47.132Z</time>
      </trkpt>
      <trkpt lat="43.82427" lon="4.21997">
        <ele>55.5</ele>
        <time>2025-10-15T07:42:52.625Z</time>
      </trkpt>
      <trkpt lat="43.82438" lon="4.21997">
        <ele>55.92</ele>
        <time>2025-10-15T07:42:58.122Z</time>
      </trkpt>
      <trkpt lat="43.82443" lon="4.21987">
        <ele>56.36</ele>
        <time>2025-10-15T07:43:03.622Z</time>
      </trkpt>
      <trkpt lat="43.82457" lon="4.21964">
        <ele>57.99</ele>
        <time>2025-10-15T07:43:09.129Z</time>
      </trkpt>
      <trkpt lat="43.8247" lon="4.21941">
        <ele>58.66</ele>
        <time>2025-10-15T07:43:14.643Z</time>
      </trkpt>
      <trkpt lat="43.82494" lon="4.2195">
        <ele>59.97</ele>
        <time>2025-10-15T07:43:20.165Z</time>
      </trkpt>
      <trkpt lat="43.82494" lon="4.2195">
        <ele>61.2</ele>
        <time>2025-10-15T07:43:25.687Z</time>
      </trkpt>
      <trkpt lat="43.82519" lon="4.21957">
        <ele>61.93</ele>
        <time>2025-10-15T07:43:31.218Z</time>
      </trkpt>
      <trkpt lat="43.82541" lon="4.21952">
        <ele>62.62</ele>
        <time>2025-10-15T07:43:36.756Z</time>
      </trkpt>
      <trkpt lat="43.82541" lon="4.21952">
        <ele>63.64</ele>
        <time>2025-10-15T07:43:42.294Z</time>
      </trkpt>
      <trkpt lat="43.82543" lon="4.21909">
        <ele>64.12</ele>
        <time>2025-10-15T07:43:47.842Z</time>
      </trkpt>
      <trkpt lat="43.82547" lon="4.2192">
        <ele>65.68</ele>
        <time>2025-10-15T07:43:53.393Z</time>
      </trkpt>
      <trkpt lat="43.82554" lon="4.21924">
        <ele>66</ele>
        <time>2025-10-15T07:43:58.947Z</time>
      </trkpt>
      <trkpt lat="43.82558" lon="4.21911">
        <ele>66.26</ele>
        <time>2025-10-15T07:44:04.504Z</time>
      </trkpt>
      <trkpt lat="43.82551" lon="4.21905">
        <ele>66.78</ele>
        <time>2025-10-15T07:44:10.064Z</time>
      </trkpt>
      <trkpt lat="43.82551" lon="4.21882">
        <ele>66.87</ele>
        <time>2025-10-15T07:44:15.629Z</time>
      </trkpt>
      <trkpt lat="43.82551" lon="4.2186">
        <ele>66.97</ele>
        <time>2025-10-15T07:44:21.200Z</time>
      </trkpt>
      <trkpt lat="43.82551" lon="4.2186">
        <ele>67.13</ele>
        <time>2025-10-15T07:44:26.771Z</time>
      </trkpt>
      <trkpt lat="43.82566" lon="4.2186">
        <ele>67.82</ele>
        <time>2025-10-15T07:44:32.347Z</time>
      </trkpt>
      <trkpt lat="43.82573" lon="4.21821">
        <ele>68.89</ele>
        <time>2025-10-15T07:44:37.932Z</time>
      </trkpt>
      <trkpt lat="43.82579" lon="4.21808">
        <ele>69.24</ele>
        <time>2025-10-15T07:44:43.521Z</time>
      </trkpt>
      <trkpt lat="43.82596" lon="4.21793">
        <ele>69.69</ele>
        <time>2025-10-15T07:44:49.117Z</time>
      </trkpt>
      <trkpt lat="43.82599" lon="4.21796">
        <ele>70.66</ele>
        <time>2025-10-15T07:44:54.714Z</time>
      </trkpt>
      <trkpt lat="43.82603" lon="4.21798">
        <ele>71.07</ele>
        <time>2025-10-15T07:45:00.312Z</time>
      </trkpt>
      <trkpt lat="43.82603" lon="4.21798">
        <ele>71.44</ele>
        <time>2025-10-15T07:45:05.910Z</time>
      </trkpt>
      <trkpt lat="43.82618" lon="4.21792">
        <ele>72.42</ele>
        <time>2025-10-15T07:45:11.514Z</time>
      </trkpt>
      <trkpt lat="43.82626" lon="4.21786">
        <ele>73.17</ele>
        <time>2025-10-15T07:45:17.121Z</time>
      </trkpt>
      <trkpt lat="43.82633" lon="4.21784">
        <ele>73.98</ele>
        <time>2025-10-15T07:45:22.730Z</time>
      </trkpt>
      <trkpt lat="43.82637" lon="4.21796">
        <ele>74.91</ele>
        <time>2025-10-15T07:45:28.342Z</time>
      </trkpt>
      <trkpt lat="43.82657" lon="4.21796">
        <ele>75.9</ele>
        <time>2025-10-15T07:45:33.961Z</time>
      </trkpt>
      <trkpt lat="43.82678" lon="4.21795">
        <ele>76.3</ele>
        <time>2025-10-15T07:45:39.587Z</time>
      </trkpt>
    </trkseg>
  </trk>
</gpx>